<?xml version="1.0" encoding="UTF-8" standalone="no" ?>
<gpx xmlns="http://www.topografix.com/GPX/1/1" xmlns:xsi="http://www.w3.org/2001/XMLSchema-instance" xsi:schemaLocation="http://www.topografix.com/GPX/1/1 http://www.topografix.com/GPX/1/1/gpx.xsd" version="1.1" creator="VisuGPX - https://www.visugpx.com">
  <metadata>
    <name>Jas de Barna Babadié 10km 200m</name>
    <desc><![CDATA[Randonnée sans difficulté.]]></desc>
  </metadata>
  <trk>
    <name><![CDATA[2022-02-07 16:39:29]]></name>
    <extensions>
      <line xmlns="http://www.topografix.com/GPX/gpx_style/0/2">
        <color>0000FF</color>
        <width>4</width>
      </line>
    </extensions>
    <trkseg>
      <trkpt lat="43.54025" lon="6.31299">
        <ele>362.8</ele>
        <time>2022-02-07T12:36:17Z</time>
      </trkpt>
      <trkpt lat="43.54017" lon="6.31295">
        <ele>362.6</ele>
        <time>2022-02-07T12:41:40Z</time>
      </trkpt>
      <trkpt lat="43.54014" lon="6.31293">
        <ele>362.6</ele>
        <time>2022-02-07T12:42:47Z</time>
      </trkpt>
      <trkpt lat="43.54019" lon="6.31292">
        <ele>362.5</ele>
        <time>2022-02-07T12:43:42Z</time>
      </trkpt>
      <trkpt lat="43.5402" lon="6.31284">
        <ele>362.2</ele>
        <time>2022-02-07T12:44:30Z</time>
      </trkpt>
      <trkpt lat="43.54027" lon="6.31277">
        <ele>362</ele>
        <time>2022-02-07T12:44:47Z</time>
      </trkpt>
      <trkpt lat="43.54029" lon="6.31264">
        <ele>362.1</ele>
        <time>2022-02-07T12:45:00Z</time>
      </trkpt>
      <trkpt lat="43.54028" lon="6.31247">
        <ele>362.2</ele>
        <time>2022-02-07T12:45:12Z</time>
      </trkpt>
      <trkpt lat="43.54037" lon="6.31235">
        <ele>363.2</ele>
        <time>2022-02-07T12:45:24Z</time>
      </trkpt>
      <trkpt lat="43.54046" lon="6.31229">
        <ele>363.7</ele>
        <time>2022-02-07T12:45:33Z</time>
      </trkpt>
      <trkpt lat="43.54055" lon="6.3122">
        <ele>363.9</ele>
        <time>2022-02-07T12:45:45Z</time>
      </trkpt>
      <trkpt lat="43.54064" lon="6.31207">
        <ele>364.1</ele>
        <time>2022-02-07T12:45:57Z</time>
      </trkpt>
      <trkpt lat="43.54067" lon="6.31205">
        <ele>364.2</ele>
      </trkpt>
      <trkpt lat="43.54072" lon="6.31202">
        <ele>364.5</ele>
        <time>2022-02-07T12:46:08Z</time>
      </trkpt>
      <trkpt lat="43.54079" lon="6.312">
        <ele>364.9</ele>
        <time>2022-02-07T12:46:21Z</time>
      </trkpt>
      <trkpt lat="43.54087" lon="6.31188">
        <ele>365</ele>
        <time>2022-02-07T12:46:32Z</time>
      </trkpt>
      <trkpt lat="43.54093" lon="6.31179">
        <ele>365.1</ele>
        <time>2022-02-07T12:46:41Z</time>
      </trkpt>
      <trkpt lat="43.54102" lon="6.31173">
        <ele>365.5</ele>
        <time>2022-02-07T12:46:53Z</time>
      </trkpt>
      <trkpt lat="43.54114" lon="6.31159">
        <ele>366</ele>
        <time>2022-02-07T12:47:07Z</time>
      </trkpt>
      <trkpt lat="43.54112" lon="6.31145">
        <ele>365.4</ele>
        <time>2022-02-07T12:47:23Z</time>
      </trkpt>
      <trkpt lat="43.54109" lon="6.31131">
        <ele>365</ele>
        <time>2022-02-07T12:47:39Z</time>
      </trkpt>
      <trkpt lat="43.54108" lon="6.31112">
        <ele>365</ele>
        <time>2022-02-07T12:47:54Z</time>
      </trkpt>
      <trkpt lat="43.54101" lon="6.31096">
        <ele>365</ele>
        <time>2022-02-07T12:48:09Z</time>
      </trkpt>
      <trkpt lat="43.54092" lon="6.31081">
        <ele>365</ele>
        <time>2022-02-07T12:48:27Z</time>
      </trkpt>
      <trkpt lat="43.54093" lon="6.31066">
        <ele>364.8</ele>
        <time>2022-02-07T12:48:38Z</time>
      </trkpt>
      <trkpt lat="43.54089" lon="6.31048">
        <ele>364.3</ele>
        <time>2022-02-07T12:48:48Z</time>
      </trkpt>
      <trkpt lat="43.54088" lon="6.31031">
        <ele>363.2</ele>
        <time>2022-02-07T12:48:57Z</time>
      </trkpt>
      <trkpt lat="43.54085" lon="6.31015">
        <ele>362.6</ele>
        <time>2022-02-07T12:49:05Z</time>
      </trkpt>
      <trkpt lat="43.54086" lon="6.30997">
        <ele>362.1</ele>
        <time>2022-02-07T12:49:13Z</time>
      </trkpt>
      <trkpt lat="43.54086" lon="6.30984">
        <ele>362.1</ele>
        <time>2022-02-07T12:49:21Z</time>
      </trkpt>
      <trkpt lat="43.54088" lon="6.30971">
        <ele>362.2</ele>
        <time>2022-02-07T12:49:33Z</time>
      </trkpt>
      <trkpt lat="43.54088" lon="6.30957">
        <ele>362.7</ele>
        <time>2022-02-07T12:49:42Z</time>
      </trkpt>
      <trkpt lat="43.54088" lon="6.30943">
        <ele>363.2</ele>
        <time>2022-02-07T12:49:51Z</time>
      </trkpt>
      <trkpt lat="43.5409" lon="6.3093">
        <ele>363.7</ele>
        <time>2022-02-07T12:49:59Z</time>
      </trkpt>
      <trkpt lat="43.54091" lon="6.30917">
        <ele>364.2</ele>
        <time>2022-02-07T12:50:09Z</time>
      </trkpt>
      <trkpt lat="43.5409" lon="6.30904">
        <ele>364.4</ele>
        <time>2022-02-07T12:50:19Z</time>
      </trkpt>
      <trkpt lat="43.54089" lon="6.30892">
        <ele>364.4</ele>
        <time>2022-02-07T12:50:30Z</time>
      </trkpt>
      <trkpt lat="43.54095" lon="6.30879">
        <ele>365.2</ele>
        <time>2022-02-07T12:50:42Z</time>
      </trkpt>
      <trkpt lat="43.54094" lon="6.3087">
        <ele>365.5</ele>
        <time>2022-02-07T12:50:58Z</time>
      </trkpt>
      <trkpt lat="43.54097" lon="6.30858">
        <ele>366.4</ele>
        <time>2022-02-07T12:51:11Z</time>
      </trkpt>
      <trkpt lat="43.54095" lon="6.30834">
        <ele>368.8</ele>
        <time>2022-02-07T12:51:23Z</time>
      </trkpt>
      <trkpt lat="43.54096" lon="6.30818">
        <ele>369.7</ele>
        <time>2022-02-07T12:51:35Z</time>
      </trkpt>
      <trkpt lat="43.54097" lon="6.30805">
        <ele>370.5</ele>
        <time>2022-02-07T12:51:47Z</time>
      </trkpt>
      <trkpt lat="43.54096" lon="6.30788">
        <ele>372.6</ele>
        <time>2022-02-07T12:52:01Z</time>
      </trkpt>
      <trkpt lat="43.54096" lon="6.30774">
        <ele>374.5</ele>
        <time>2022-02-07T12:52:12Z</time>
      </trkpt>
      <trkpt lat="43.541" lon="6.30757">
        <ele>377.4</ele>
        <time>2022-02-07T12:52:24Z</time>
      </trkpt>
      <trkpt lat="43.54102" lon="6.30742">
        <ele>378.9</ele>
        <time>2022-02-07T12:52:36Z</time>
      </trkpt>
      <trkpt lat="43.54107" lon="6.3073">
        <ele>380.6</ele>
        <time>2022-02-07T12:52:49Z</time>
      </trkpt>
      <trkpt lat="43.54111" lon="6.30718">
        <ele>382.5</ele>
        <time>2022-02-07T12:53:01Z</time>
      </trkpt>
      <trkpt lat="43.54114" lon="6.30697">
        <ele>385.5</ele>
        <time>2022-02-07T12:53:15Z</time>
      </trkpt>
      <trkpt lat="43.5412" lon="6.30682">
        <ele>386.9</ele>
        <time>2022-02-07T12:53:28Z</time>
      </trkpt>
      <trkpt lat="43.54132" lon="6.30673">
        <ele>388.5</ele>
        <time>2022-02-07T12:53:40Z</time>
      </trkpt>
      <trkpt lat="43.54143" lon="6.30674">
        <ele>390.5</ele>
        <time>2022-02-07T12:53:52Z</time>
      </trkpt>
      <trkpt lat="43.54153" lon="6.30676">
        <ele>392.2</ele>
        <time>2022-02-07T12:54:03Z</time>
      </trkpt>
      <trkpt lat="43.54163" lon="6.30679">
        <ele>394.2</ele>
        <time>2022-02-07T12:54:15Z</time>
      </trkpt>
      <trkpt lat="43.54175" lon="6.30679">
        <ele>395.8</ele>
        <time>2022-02-07T12:54:25Z</time>
      </trkpt>
      <trkpt lat="43.54187" lon="6.30679">
        <ele>397</ele>
        <time>2022-02-07T12:54:36Z</time>
      </trkpt>
      <trkpt lat="43.54198" lon="6.30677">
        <ele>397.8</ele>
        <time>2022-02-07T12:54:47Z</time>
      </trkpt>
      <trkpt lat="43.5421" lon="6.30673">
        <ele>398</ele>
        <time>2022-02-07T12:54:57Z</time>
      </trkpt>
      <trkpt lat="43.54221" lon="6.3067">
        <ele>398.4</ele>
        <time>2022-02-07T12:55:08Z</time>
      </trkpt>
      <trkpt lat="43.54232" lon="6.30673">
        <ele>399.3</ele>
        <time>2022-02-07T12:55:18Z</time>
      </trkpt>
      <trkpt lat="43.54243" lon="6.30677">
        <ele>400.2</ele>
        <time>2022-02-07T12:55:27Z</time>
      </trkpt>
      <trkpt lat="43.54254" lon="6.30681">
        <ele>401.1</ele>
        <time>2022-02-07T12:55:39Z</time>
      </trkpt>
      <trkpt lat="43.54266" lon="6.30683">
        <ele>401.5</ele>
        <time>2022-02-07T12:55:50Z</time>
      </trkpt>
      <trkpt lat="43.54278" lon="6.30685">
        <ele>402</ele>
        <time>2022-02-07T12:55:59Z</time>
      </trkpt>
      <trkpt lat="43.54289" lon="6.30687">
        <ele>402.3</ele>
        <time>2022-02-07T12:56:09Z</time>
      </trkpt>
      <trkpt lat="43.54301" lon="6.30688">
        <ele>402.5</ele>
        <time>2022-02-07T12:56:20Z</time>
      </trkpt>
      <trkpt lat="43.54312" lon="6.30686">
        <ele>402</ele>
        <time>2022-02-07T12:56:30Z</time>
      </trkpt>
      <trkpt lat="43.54324" lon="6.30685">
        <ele>401.2</ele>
        <time>2022-02-07T12:56:40Z</time>
      </trkpt>
      <trkpt lat="43.54335" lon="6.30687">
        <ele>400.6</ele>
        <time>2022-02-07T12:56:50Z</time>
      </trkpt>
      <trkpt lat="43.54348" lon="6.30686">
        <ele>400</ele>
        <time>2022-02-07T12:57:00Z</time>
      </trkpt>
      <trkpt lat="43.5436" lon="6.30686">
        <ele>399.4</ele>
        <time>2022-02-07T12:57:11Z</time>
      </trkpt>
      <trkpt lat="43.54372" lon="6.30687">
        <ele>397.9</ele>
        <time>2022-02-07T12:57:22Z</time>
      </trkpt>
      <trkpt lat="43.54385" lon="6.30684">
        <ele>396.5</ele>
        <time>2022-02-07T12:57:34Z</time>
      </trkpt>
      <trkpt lat="43.54398" lon="6.30681">
        <ele>396</ele>
        <time>2022-02-07T12:57:43Z</time>
      </trkpt>
      <trkpt lat="43.5441" lon="6.3068">
        <ele>395.4</ele>
        <time>2022-02-07T12:57:53Z</time>
      </trkpt>
      <trkpt lat="43.54425" lon="6.30681">
        <ele>394.5</ele>
        <time>2022-02-07T12:58:06Z</time>
      </trkpt>
      <trkpt lat="43.54437" lon="6.30684">
        <ele>393.5</ele>
        <time>2022-02-07T12:58:18Z</time>
      </trkpt>
      <trkpt lat="43.54448" lon="6.30687">
        <ele>392.9</ele>
        <time>2022-02-07T12:58:31Z</time>
      </trkpt>
      <trkpt lat="43.54462" lon="6.30693">
        <ele>392.8</ele>
        <time>2022-02-07T12:58:47Z</time>
      </trkpt>
      <trkpt lat="43.5448" lon="6.30704">
        <ele>389.9</ele>
        <time>2022-02-07T12:59:05Z</time>
      </trkpt>
      <trkpt lat="43.54494" lon="6.30704">
        <ele>390</ele>
        <time>2022-02-07T12:59:17Z</time>
      </trkpt>
      <trkpt lat="43.54507" lon="6.30691">
        <ele>391.2</ele>
        <time>2022-02-07T12:59:29Z</time>
      </trkpt>
      <trkpt lat="43.5451" lon="6.30679">
        <ele>392.2</ele>
        <time>2022-02-07T12:59:40Z</time>
      </trkpt>
      <trkpt lat="43.54508" lon="6.30666">
        <ele>394.2</ele>
        <time>2022-02-07T12:59:54Z</time>
      </trkpt>
      <trkpt lat="43.54508" lon="6.30651">
        <ele>395.4</ele>
        <time>2022-02-07T13:00:07Z</time>
      </trkpt>
      <trkpt lat="43.54509" lon="6.30635">
        <ele>396.5</ele>
        <time>2022-02-07T13:00:21Z</time>
      </trkpt>
      <trkpt lat="43.54512" lon="6.30621">
        <ele>397.1</ele>
        <time>2022-02-07T13:00:31Z</time>
      </trkpt>
      <trkpt lat="43.54514" lon="6.30603">
        <ele>398</ele>
        <time>2022-02-07T13:00:43Z</time>
      </trkpt>
      <trkpt lat="43.54517" lon="6.30584">
        <ele>399</ele>
        <time>2022-02-07T13:00:53Z</time>
      </trkpt>
      <trkpt lat="43.54528" lon="6.30565">
        <ele>400.9</ele>
        <time>2022-02-07T13:01:08Z</time>
      </trkpt>
      <trkpt lat="43.54545" lon="6.3056">
        <ele>401.6</ele>
        <time>2022-02-07T13:01:20Z</time>
      </trkpt>
      <trkpt lat="43.54554" lon="6.30558">
        <ele>401.8</ele>
        <time>2022-02-07T13:01:36Z</time>
      </trkpt>
      <trkpt lat="43.54568" lon="6.30547">
        <ele>403.4</ele>
        <time>2022-02-07T13:01:52Z</time>
      </trkpt>
      <trkpt lat="43.54579" lon="6.30539">
        <ele>404.4</ele>
        <time>2022-02-07T13:02:02Z</time>
      </trkpt>
      <trkpt lat="43.54585" lon="6.30536">
        <ele>404.8</ele>
        <time>2022-02-07T13:02:13Z</time>
      </trkpt>
      <trkpt lat="43.54592" lon="6.30524">
        <ele>405.2</ele>
        <time>2022-02-07T13:02:36Z</time>
      </trkpt>
      <trkpt lat="43.54598" lon="6.30509">
        <ele>405.2</ele>
        <time>2022-02-07T13:02:48Z</time>
      </trkpt>
      <trkpt lat="43.54605" lon="6.30494">
        <ele>405.3</ele>
        <time>2022-02-07T13:02:58Z</time>
      </trkpt>
      <trkpt lat="43.54611" lon="6.30485">
        <ele>405.5</ele>
        <time>2022-02-07T13:03:12Z</time>
      </trkpt>
      <trkpt lat="43.54616" lon="6.30476">
        <ele>405.6</ele>
        <time>2022-02-07T13:03:21Z</time>
      </trkpt>
      <trkpt lat="43.54627" lon="6.30452">
        <ele>405.3</ele>
        <time>2022-02-07T13:03:41Z</time>
      </trkpt>
      <trkpt lat="43.54628" lon="6.30441">
        <ele>404.6</ele>
        <time>2022-02-07T13:04:01Z</time>
      </trkpt>
      <trkpt lat="43.54634" lon="6.30422">
        <ele>404</ele>
        <time>2022-02-07T13:05:13Z</time>
      </trkpt>
      <trkpt lat="43.54638" lon="6.30413">
        <ele>403.9</ele>
        <time>2022-02-07T13:07:44Z</time>
      </trkpt>
      <trkpt lat="43.54639" lon="6.30407">
        <ele>404</ele>
        <time>2022-02-07T13:08:00Z</time>
      </trkpt>
      <trkpt lat="43.54641" lon="6.30391">
        <ele>404.3</ele>
        <time>2022-02-07T13:08:12Z</time>
      </trkpt>
      <trkpt lat="43.54644" lon="6.30378">
        <ele>404.2</ele>
        <time>2022-02-07T13:08:27Z</time>
      </trkpt>
      <trkpt lat="43.54647" lon="6.30361">
        <ele>404.2</ele>
        <time>2022-02-07T13:08:50Z</time>
      </trkpt>
      <trkpt lat="43.54647" lon="6.30356">
        <ele>404</ele>
        <time>2022-02-07T13:09:08Z</time>
      </trkpt>
      <trkpt lat="43.54653" lon="6.30353">
        <ele>404.7</ele>
        <time>2022-02-07T13:09:28Z</time>
      </trkpt>
      <trkpt lat="43.54659" lon="6.30343">
        <ele>405.3</ele>
        <time>2022-02-07T13:09:59Z</time>
      </trkpt>
      <trkpt lat="43.54655" lon="6.30336">
        <ele>404.5</ele>
        <time>2022-02-07T13:10:11Z</time>
      </trkpt>
      <trkpt lat="43.54648" lon="6.30325">
        <ele>402.7</ele>
        <time>2022-02-07T13:10:26Z</time>
      </trkpt>
      <trkpt lat="43.54649" lon="6.30323">
        <ele>402.6</ele>
      </trkpt>
      <trkpt lat="43.54647" lon="6.30318">
        <ele>401.9</ele>
        <time>2022-02-07T13:10:41Z</time>
      </trkpt>
      <trkpt lat="43.54641" lon="6.303">
        <ele>400</ele>
        <time>2022-02-07T13:10:58Z</time>
      </trkpt>
      <trkpt lat="43.54636" lon="6.30289">
        <ele>399.2</ele>
        <time>2022-02-07T13:11:18Z</time>
      </trkpt>
      <trkpt lat="43.54634" lon="6.30276">
        <ele>398.5</ele>
        <time>2022-02-07T13:11:31Z</time>
      </trkpt>
      <trkpt lat="43.54633" lon="6.30267">
        <ele>397.8</ele>
        <time>2022-02-07T13:11:47Z</time>
      </trkpt>
      <trkpt lat="43.54639" lon="6.30256">
        <ele>397.5</ele>
        <time>2022-02-07T13:12:01Z</time>
      </trkpt>
      <trkpt lat="43.54646" lon="6.30246">
        <ele>397.8</ele>
        <time>2022-02-07T13:12:17Z</time>
      </trkpt>
      <trkpt lat="43.54656" lon="6.30229">
        <ele>398.3</ele>
        <time>2022-02-07T13:12:29Z</time>
      </trkpt>
      <trkpt lat="43.54662" lon="6.30211">
        <ele>397.7</ele>
        <time>2022-02-07T13:12:39Z</time>
      </trkpt>
      <trkpt lat="43.54668" lon="6.30195">
        <ele>397.1</ele>
        <time>2022-02-07T13:12:49Z</time>
      </trkpt>
      <trkpt lat="43.54677" lon="6.30179">
        <ele>397.4</ele>
        <time>2022-02-07T13:12:58Z</time>
      </trkpt>
      <trkpt lat="43.54678" lon="6.30166">
        <ele>396.8</ele>
        <time>2022-02-07T13:13:07Z</time>
      </trkpt>
      <trkpt lat="43.54684" lon="6.30155">
        <ele>396.7</ele>
        <time>2022-02-07T13:13:17Z</time>
      </trkpt>
      <trkpt lat="43.54689" lon="6.30142">
        <ele>396.6</ele>
        <time>2022-02-07T13:13:26Z</time>
      </trkpt>
      <trkpt lat="43.54694" lon="6.30132">
        <ele>396.5</ele>
        <time>2022-02-07T13:13:35Z</time>
      </trkpt>
      <trkpt lat="43.54696" lon="6.30118">
        <ele>395.5</ele>
        <time>2022-02-07T13:13:43Z</time>
      </trkpt>
      <trkpt lat="43.54701" lon="6.30112">
        <ele>395.3</ele>
        <time>2022-02-07T13:13:55Z</time>
      </trkpt>
      <trkpt lat="43.54717" lon="6.30119">
        <ele>396.3</ele>
        <time>2022-02-07T13:14:09Z</time>
      </trkpt>
      <trkpt lat="43.54724" lon="6.30094">
        <ele>396</ele>
        <time>2022-02-07T13:14:21Z</time>
      </trkpt>
      <trkpt lat="43.54729" lon="6.3008">
        <ele>396</ele>
        <time>2022-02-07T13:14:31Z</time>
      </trkpt>
      <trkpt lat="43.54735" lon="6.30067">
        <ele>395.7</ele>
        <time>2022-02-07T13:14:42Z</time>
      </trkpt>
      <trkpt lat="43.54738" lon="6.30054">
        <ele>395.4</ele>
        <time>2022-02-07T13:14:52Z</time>
      </trkpt>
      <trkpt lat="43.5474" lon="6.30036">
        <ele>395.4</ele>
        <time>2022-02-07T13:15:02Z</time>
      </trkpt>
      <trkpt lat="43.54744" lon="6.30022">
        <ele>395.2</ele>
        <time>2022-02-07T13:15:12Z</time>
      </trkpt>
      <trkpt lat="43.54748" lon="6.30007">
        <ele>395</ele>
        <time>2022-02-07T13:15:21Z</time>
      </trkpt>
      <trkpt lat="43.5475" lon="6.29993">
        <ele>394.7</ele>
        <time>2022-02-07T13:15:29Z</time>
      </trkpt>
      <trkpt lat="43.54754" lon="6.2998">
        <ele>394.3</ele>
        <time>2022-02-07T13:15:38Z</time>
      </trkpt>
      <trkpt lat="43.54757" lon="6.29966">
        <ele>394</ele>
        <time>2022-02-07T13:15:47Z</time>
      </trkpt>
      <trkpt lat="43.5476" lon="6.29951">
        <ele>394</ele>
        <time>2022-02-07T13:15:56Z</time>
      </trkpt>
      <trkpt lat="43.54764" lon="6.29938">
        <ele>394</ele>
        <time>2022-02-07T13:16:05Z</time>
      </trkpt>
      <trkpt lat="43.54767" lon="6.29925">
        <ele>394</ele>
        <time>2022-02-07T13:16:14Z</time>
      </trkpt>
      <trkpt lat="43.54767" lon="6.29911">
        <ele>394</ele>
        <time>2022-02-07T13:16:23Z</time>
      </trkpt>
      <trkpt lat="43.54765" lon="6.29895">
        <ele>394</ele>
        <time>2022-02-07T13:16:33Z</time>
      </trkpt>
      <trkpt lat="43.54767" lon="6.29881">
        <ele>393.9</ele>
        <time>2022-02-07T13:16:43Z</time>
      </trkpt>
      <trkpt lat="43.5477" lon="6.29865">
        <ele>393.8</ele>
        <time>2022-02-07T13:16:53Z</time>
      </trkpt>
      <trkpt lat="43.54773" lon="6.29849">
        <ele>394.2</ele>
        <time>2022-02-07T13:17:03Z</time>
      </trkpt>
      <trkpt lat="43.54773" lon="6.29831">
        <ele>394.7</ele>
        <time>2022-02-07T13:17:15Z</time>
      </trkpt>
      <trkpt lat="43.5476" lon="6.29822">
        <ele>394.1</ele>
        <time>2022-02-07T13:17:28Z</time>
      </trkpt>
      <trkpt lat="43.5475" lon="6.29816">
        <ele>393.6</ele>
        <time>2022-02-07T13:17:38Z</time>
      </trkpt>
      <trkpt lat="43.5474" lon="6.29806">
        <ele>393.6</ele>
        <time>2022-02-07T13:17:47Z</time>
      </trkpt>
      <trkpt lat="43.54731" lon="6.298">
        <ele>393.3</ele>
        <time>2022-02-07T13:17:56Z</time>
      </trkpt>
      <trkpt lat="43.54721" lon="6.29795">
        <ele>393</ele>
        <time>2022-02-07T13:18:06Z</time>
      </trkpt>
      <trkpt lat="43.54712" lon="6.29791">
        <ele>392.6</ele>
        <time>2022-02-07T13:18:15Z</time>
      </trkpt>
      <trkpt lat="43.54703" lon="6.29783">
        <ele>392.3</ele>
        <time>2022-02-07T13:18:25Z</time>
      </trkpt>
      <trkpt lat="43.54693" lon="6.29778">
        <ele>392</ele>
        <time>2022-02-07T13:18:34Z</time>
      </trkpt>
      <trkpt lat="43.54682" lon="6.29773">
        <ele>392.4</ele>
        <time>2022-02-07T13:18:43Z</time>
      </trkpt>
      <trkpt lat="43.54671" lon="6.29769">
        <ele>392.8</ele>
        <time>2022-02-07T13:18:51Z</time>
      </trkpt>
      <trkpt lat="43.54663" lon="6.29763">
        <ele>392.8</ele>
        <time>2022-02-07T13:18:59Z</time>
      </trkpt>
      <trkpt lat="43.54657" lon="6.29756">
        <ele>392.7</ele>
        <time>2022-02-07T13:19:08Z</time>
      </trkpt>
      <trkpt lat="43.54649" lon="6.2975">
        <ele>393</ele>
        <time>2022-02-07T13:19:18Z</time>
      </trkpt>
      <trkpt lat="43.54638" lon="6.29743">
        <ele>393.4</ele>
        <time>2022-02-07T13:19:28Z</time>
      </trkpt>
      <trkpt lat="43.54626" lon="6.29732">
        <ele>393.9</ele>
        <time>2022-02-07T13:19:39Z</time>
      </trkpt>
      <trkpt lat="43.54616" lon="6.29725">
        <ele>395.1</ele>
        <time>2022-02-07T13:19:49Z</time>
      </trkpt>
      <trkpt lat="43.54606" lon="6.29719">
        <ele>395.5</ele>
        <time>2022-02-07T13:19:59Z</time>
      </trkpt>
      <trkpt lat="43.54597" lon="6.29713">
        <ele>395</ele>
        <time>2022-02-07T13:20:08Z</time>
      </trkpt>
      <trkpt lat="43.54598" lon="6.297">
        <ele>395.7</ele>
        <time>2022-02-07T13:20:18Z</time>
      </trkpt>
      <trkpt lat="43.54602" lon="6.29687">
        <ele>395.6</ele>
        <time>2022-02-07T13:20:28Z</time>
      </trkpt>
      <trkpt lat="43.54609" lon="6.29675">
        <ele>395.2</ele>
        <time>2022-02-07T13:20:37Z</time>
      </trkpt>
      <trkpt lat="43.54617" lon="6.29664">
        <ele>394.8</ele>
        <time>2022-02-07T13:20:47Z</time>
      </trkpt>
      <trkpt lat="43.54618" lon="6.2965">
        <ele>393.9</ele>
        <time>2022-02-07T13:20:57Z</time>
      </trkpt>
      <trkpt lat="43.5462" lon="6.29633">
        <ele>393.3</ele>
        <time>2022-02-07T13:21:09Z</time>
      </trkpt>
      <trkpt lat="43.54622" lon="6.29611">
        <ele>393.4</ele>
        <time>2022-02-07T13:21:22Z</time>
      </trkpt>
      <trkpt lat="43.54624" lon="6.29591">
        <ele>393.9</ele>
        <time>2022-02-07T13:21:33Z</time>
      </trkpt>
      <trkpt lat="43.54625" lon="6.29573">
        <ele>394.2</ele>
        <time>2022-02-07T13:21:44Z</time>
      </trkpt>
      <trkpt lat="43.54626" lon="6.29555">
        <ele>394.5</ele>
        <time>2022-02-07T13:21:54Z</time>
      </trkpt>
      <trkpt lat="43.54628" lon="6.29538">
        <ele>394.6</ele>
        <time>2022-02-07T13:22:03Z</time>
      </trkpt>
      <trkpt lat="43.54628" lon="6.29525">
        <ele>394.6</ele>
        <time>2022-02-07T13:22:12Z</time>
      </trkpt>
      <trkpt lat="43.54631" lon="6.29512">
        <ele>394.7</ele>
        <time>2022-02-07T13:22:20Z</time>
      </trkpt>
      <trkpt lat="43.54633" lon="6.29498">
        <ele>394.8</ele>
        <time>2022-02-07T13:22:28Z</time>
      </trkpt>
      <trkpt lat="43.54635" lon="6.29486">
        <ele>395.4</ele>
        <time>2022-02-07T13:22:35Z</time>
      </trkpt>
      <trkpt lat="43.54644" lon="6.29481">
        <ele>395.7</ele>
        <time>2022-02-07T13:22:44Z</time>
      </trkpt>
      <trkpt lat="43.54653" lon="6.29471">
        <ele>396.1</ele>
        <time>2022-02-07T13:22:54Z</time>
      </trkpt>
      <trkpt lat="43.54662" lon="6.29462">
        <ele>396.4</ele>
        <time>2022-02-07T13:23:03Z</time>
      </trkpt>
      <trkpt lat="43.54669" lon="6.29448">
        <ele>396.8</ele>
        <time>2022-02-07T13:23:13Z</time>
      </trkpt>
      <trkpt lat="43.54677" lon="6.29433">
        <ele>397</ele>
        <time>2022-02-07T13:23:25Z</time>
      </trkpt>
      <trkpt lat="43.54684" lon="6.29421">
        <ele>397.2</ele>
        <time>2022-02-07T13:23:36Z</time>
      </trkpt>
      <trkpt lat="43.54691" lon="6.29406">
        <ele>397.5</ele>
        <time>2022-02-07T13:23:47Z</time>
      </trkpt>
      <trkpt lat="43.54696" lon="6.29394">
        <ele>397.8</ele>
        <time>2022-02-07T13:23:56Z</time>
      </trkpt>
      <trkpt lat="43.54701" lon="6.29383">
        <ele>398.6</ele>
        <time>2022-02-07T13:24:05Z</time>
      </trkpt>
      <trkpt lat="43.54708" lon="6.29372">
        <ele>399.2</ele>
        <time>2022-02-07T13:24:14Z</time>
      </trkpt>
      <trkpt lat="43.54713" lon="6.29357">
        <ele>399.8</ele>
        <time>2022-02-07T13:24:22Z</time>
      </trkpt>
      <trkpt lat="43.54716" lon="6.29347">
        <ele>399.6</ele>
        <time>2022-02-07T13:24:32Z</time>
      </trkpt>
      <trkpt lat="43.54721" lon="6.29335">
        <ele>399.1</ele>
        <time>2022-02-07T13:24:41Z</time>
      </trkpt>
      <trkpt lat="43.54722" lon="6.29318">
        <ele>399</ele>
        <time>2022-02-07T13:24:53Z</time>
      </trkpt>
      <trkpt lat="43.54725" lon="6.29299">
        <ele>399.2</ele>
        <time>2022-02-07T13:25:04Z</time>
      </trkpt>
      <trkpt lat="43.54734" lon="6.29283">
        <ele>399.5</ele>
        <time>2022-02-07T13:25:15Z</time>
      </trkpt>
      <trkpt lat="43.54737" lon="6.2927">
        <ele>399.3</ele>
        <time>2022-02-07T13:25:25Z</time>
      </trkpt>
      <trkpt lat="43.54735" lon="6.29252">
        <ele>399.2</ele>
        <time>2022-02-07T13:25:38Z</time>
      </trkpt>
      <trkpt lat="43.54729" lon="6.29234">
        <ele>399.2</ele>
        <time>2022-02-07T13:25:48Z</time>
      </trkpt>
      <trkpt lat="43.54721" lon="6.29217">
        <ele>399.9</ele>
        <time>2022-02-07T13:25:58Z</time>
      </trkpt>
      <trkpt lat="43.54714" lon="6.29202">
        <ele>400</ele>
        <time>2022-02-07T13:26:09Z</time>
      </trkpt>
      <trkpt lat="43.54713" lon="6.29187">
        <ele>400.4</ele>
        <time>2022-02-07T13:26:22Z</time>
      </trkpt>
      <trkpt lat="43.54713" lon="6.29166">
        <ele>401.7</ele>
        <time>2022-02-07T13:26:34Z</time>
      </trkpt>
      <trkpt lat="43.54719" lon="6.2915">
        <ele>402.3</ele>
        <time>2022-02-07T13:26:48Z</time>
      </trkpt>
      <trkpt lat="43.54726" lon="6.29136">
        <ele>401.8</ele>
        <time>2022-02-07T13:27:02Z</time>
      </trkpt>
      <trkpt lat="43.54728" lon="6.29118">
        <ele>403.1</ele>
        <time>2022-02-07T13:27:14Z</time>
      </trkpt>
      <trkpt lat="43.54733" lon="6.291">
        <ele>403.7</ele>
        <time>2022-02-07T13:27:25Z</time>
      </trkpt>
      <trkpt lat="43.5474" lon="6.29087">
        <ele>404.1</ele>
        <time>2022-02-07T13:27:36Z</time>
      </trkpt>
      <trkpt lat="43.5475" lon="6.29073">
        <ele>404.1</ele>
        <time>2022-02-07T13:27:47Z</time>
      </trkpt>
      <trkpt lat="43.54757" lon="6.2906">
        <ele>404.1</ele>
        <time>2022-02-07T13:27:57Z</time>
      </trkpt>
      <trkpt lat="43.54765" lon="6.29052">
        <ele>403.7</ele>
        <time>2022-02-07T13:28:06Z</time>
      </trkpt>
      <trkpt lat="43.54773" lon="6.29041">
        <ele>404.1</ele>
        <time>2022-02-07T13:28:15Z</time>
      </trkpt>
      <trkpt lat="43.5478" lon="6.29029">
        <ele>405.6</ele>
        <time>2022-02-07T13:28:28Z</time>
      </trkpt>
      <trkpt lat="43.5478" lon="6.29033">
        <ele>404.6</ele>
        <time>2022-02-07T13:29:42Z</time>
      </trkpt>
      <trkpt lat="43.54786" lon="6.29028">
        <ele>404.8</ele>
        <time>2022-02-07T13:32:00Z</time>
      </trkpt>
      <trkpt lat="43.54792" lon="6.29022">
        <ele>404.4</ele>
        <time>2022-02-07T13:32:10Z</time>
      </trkpt>
      <trkpt lat="43.548" lon="6.29014">
        <ele>404.1</ele>
        <time>2022-02-07T13:32:21Z</time>
      </trkpt>
      <trkpt lat="43.54809" lon="6.29007">
        <ele>404.1</ele>
        <time>2022-02-07T13:32:31Z</time>
      </trkpt>
      <trkpt lat="43.54818" lon="6.28995">
        <ele>405.3</ele>
        <time>2022-02-07T13:32:41Z</time>
      </trkpt>
      <trkpt lat="43.54826" lon="6.28986">
        <ele>405.6</ele>
        <time>2022-02-07T13:32:52Z</time>
      </trkpt>
      <trkpt lat="43.54834" lon="6.28977">
        <ele>405.9</ele>
        <time>2022-02-07T13:33:01Z</time>
      </trkpt>
      <trkpt lat="43.54841" lon="6.28968">
        <ele>406.7</ele>
        <time>2022-02-07T13:33:10Z</time>
      </trkpt>
      <trkpt lat="43.54851" lon="6.28958">
        <ele>407.5</ele>
        <time>2022-02-07T13:33:21Z</time>
      </trkpt>
      <trkpt lat="43.54859" lon="6.28949">
        <ele>407.9</ele>
        <time>2022-02-07T13:33:30Z</time>
      </trkpt>
      <trkpt lat="43.54866" lon="6.28937">
        <ele>407.9</ele>
        <time>2022-02-07T13:33:39Z</time>
      </trkpt>
      <trkpt lat="43.54874" lon="6.28924">
        <ele>407.7</ele>
        <time>2022-02-07T13:33:48Z</time>
      </trkpt>
      <trkpt lat="43.5488" lon="6.28909">
        <ele>407.5</ele>
        <time>2022-02-07T13:33:57Z</time>
      </trkpt>
      <trkpt lat="43.54885" lon="6.28895">
        <ele>407.2</ele>
        <time>2022-02-07T13:34:06Z</time>
      </trkpt>
      <trkpt lat="43.54893" lon="6.28883">
        <ele>406.9</ele>
        <time>2022-02-07T13:34:15Z</time>
      </trkpt>
      <trkpt lat="43.54899" lon="6.2887">
        <ele>406.7</ele>
        <time>2022-02-07T13:34:24Z</time>
      </trkpt>
      <trkpt lat="43.54906" lon="6.28858">
        <ele>406.5</ele>
        <time>2022-02-07T13:34:33Z</time>
      </trkpt>
      <trkpt lat="43.54913" lon="6.28843">
        <ele>406.3</ele>
        <time>2022-02-07T13:34:43Z</time>
      </trkpt>
      <trkpt lat="43.54919" lon="6.28831">
        <ele>406.1</ele>
        <time>2022-02-07T13:34:52Z</time>
      </trkpt>
      <trkpt lat="43.54924" lon="6.28816">
        <ele>406.1</ele>
        <time>2022-02-07T13:35:02Z</time>
      </trkpt>
      <trkpt lat="43.54932" lon="6.28799">
        <ele>406</ele>
        <time>2022-02-07T13:35:11Z</time>
      </trkpt>
      <trkpt lat="43.54936" lon="6.28786">
        <ele>406</ele>
        <time>2022-02-07T13:35:20Z</time>
      </trkpt>
      <trkpt lat="43.54942" lon="6.28774">
        <ele>405.9</ele>
        <time>2022-02-07T13:35:29Z</time>
      </trkpt>
      <trkpt lat="43.54947" lon="6.28762">
        <ele>405.4</ele>
        <time>2022-02-07T13:35:37Z</time>
      </trkpt>
      <trkpt lat="43.54956" lon="6.28757">
        <ele>405.3</ele>
        <time>2022-02-07T13:35:44Z</time>
      </trkpt>
      <trkpt lat="43.54961" lon="6.28747">
        <ele>405</ele>
        <time>2022-02-07T13:35:52Z</time>
      </trkpt>
      <trkpt lat="43.54966" lon="6.28734">
        <ele>405</ele>
        <time>2022-02-07T13:36:01Z</time>
      </trkpt>
      <trkpt lat="43.54973" lon="6.28721">
        <ele>405</ele>
        <time>2022-02-07T13:36:11Z</time>
      </trkpt>
      <trkpt lat="43.54976" lon="6.28702">
        <ele>404.4</ele>
        <time>2022-02-07T13:36:20Z</time>
      </trkpt>
      <trkpt lat="43.5498" lon="6.28689">
        <ele>404.3</ele>
        <time>2022-02-07T13:36:29Z</time>
      </trkpt>
      <trkpt lat="43.5499" lon="6.28681">
        <ele>404.6</ele>
        <time>2022-02-07T13:36:39Z</time>
      </trkpt>
      <trkpt lat="43.54998" lon="6.28666">
        <ele>404.9</ele>
        <time>2022-02-07T13:36:49Z</time>
      </trkpt>
      <trkpt lat="43.55005" lon="6.28656">
        <ele>404.8</ele>
        <time>2022-02-07T13:36:58Z</time>
      </trkpt>
      <trkpt lat="43.55011" lon="6.28646">
        <ele>404.7</ele>
        <time>2022-02-07T13:37:07Z</time>
      </trkpt>
      <trkpt lat="43.55019" lon="6.28635">
        <ele>404.5</ele>
        <time>2022-02-07T13:37:15Z</time>
      </trkpt>
      <trkpt lat="43.55026" lon="6.28623">
        <ele>404.4</ele>
        <time>2022-02-07T13:37:24Z</time>
      </trkpt>
      <trkpt lat="43.55033" lon="6.28613">
        <ele>404.2</ele>
        <time>2022-02-07T13:37:33Z</time>
      </trkpt>
      <trkpt lat="43.55036" lon="6.28595">
        <ele>403.7</ele>
        <time>2022-02-07T13:37:41Z</time>
      </trkpt>
      <trkpt lat="43.55041" lon="6.28583">
        <ele>403.5</ele>
        <time>2022-02-07T13:37:49Z</time>
      </trkpt>
      <trkpt lat="43.55047" lon="6.28573">
        <ele>403.4</ele>
        <time>2022-02-07T13:37:57Z</time>
      </trkpt>
      <trkpt lat="43.55053" lon="6.28564">
        <ele>403.3</ele>
        <time>2022-02-07T13:38:05Z</time>
      </trkpt>
      <trkpt lat="43.55059" lon="6.28552">
        <ele>403</ele>
        <time>2022-02-07T13:38:13Z</time>
      </trkpt>
      <trkpt lat="43.55063" lon="6.28538">
        <ele>403</ele>
        <time>2022-02-07T13:38:21Z</time>
      </trkpt>
      <trkpt lat="43.55067" lon="6.28524">
        <ele>402.9</ele>
        <time>2022-02-07T13:38:30Z</time>
      </trkpt>
      <trkpt lat="43.5507" lon="6.28509">
        <ele>402.7</ele>
        <time>2022-02-07T13:38:39Z</time>
      </trkpt>
      <trkpt lat="43.55073" lon="6.28494">
        <ele>402.6</ele>
        <time>2022-02-07T13:38:49Z</time>
      </trkpt>
      <trkpt lat="43.55077" lon="6.28479">
        <ele>402.8</ele>
        <time>2022-02-07T13:38:59Z</time>
      </trkpt>
      <trkpt lat="43.55082" lon="6.2847">
        <ele>403</ele>
        <time>2022-02-07T13:39:11Z</time>
      </trkpt>
      <trkpt lat="43.55077" lon="6.28452">
        <ele>402.8</ele>
        <time>2022-02-07T13:39:22Z</time>
      </trkpt>
      <trkpt lat="43.55077" lon="6.28436">
        <ele>402.8</ele>
        <time>2022-02-07T13:39:33Z</time>
      </trkpt>
      <trkpt lat="43.55078" lon="6.28421">
        <ele>402.8</ele>
        <time>2022-02-07T13:39:42Z</time>
      </trkpt>
      <trkpt lat="43.55078" lon="6.28405">
        <ele>402.8</ele>
        <time>2022-02-07T13:39:51Z</time>
      </trkpt>
      <trkpt lat="43.55075" lon="6.28388">
        <ele>402.6</ele>
        <time>2022-02-07T13:40:04Z</time>
      </trkpt>
      <trkpt lat="43.55068" lon="6.28373">
        <ele>401.4</ele>
        <time>2022-02-07T13:40:14Z</time>
      </trkpt>
      <trkpt lat="43.55063" lon="6.28357">
        <ele>401.2</ele>
        <time>2022-02-07T13:40:22Z</time>
      </trkpt>
      <trkpt lat="43.5506" lon="6.28345">
        <ele>401.4</ele>
        <time>2022-02-07T13:40:31Z</time>
      </trkpt>
      <trkpt lat="43.55061" lon="6.2833">
        <ele>401.1</ele>
        <time>2022-02-07T13:40:41Z</time>
      </trkpt>
      <trkpt lat="43.55061" lon="6.28316">
        <ele>400.7</ele>
        <time>2022-02-07T13:40:50Z</time>
      </trkpt>
      <trkpt lat="43.55062" lon="6.28297">
        <ele>400.3</ele>
        <time>2022-02-07T13:40:59Z</time>
      </trkpt>
      <trkpt lat="43.55063" lon="6.28283">
        <ele>400.2</ele>
        <time>2022-02-07T13:41:07Z</time>
      </trkpt>
      <trkpt lat="43.55065" lon="6.28271">
        <ele>400</ele>
        <time>2022-02-07T13:41:14Z</time>
      </trkpt>
      <trkpt lat="43.55072" lon="6.28259">
        <ele>399.7</ele>
        <time>2022-02-07T13:41:23Z</time>
      </trkpt>
      <trkpt lat="43.55076" lon="6.28246">
        <ele>400.2</ele>
        <time>2022-02-07T13:41:31Z</time>
      </trkpt>
      <trkpt lat="43.55079" lon="6.28231">
        <ele>401.1</ele>
        <time>2022-02-07T13:41:41Z</time>
      </trkpt>
      <trkpt lat="43.55083" lon="6.28216">
        <ele>402.2</ele>
        <time>2022-02-07T13:41:51Z</time>
      </trkpt>
      <trkpt lat="43.55082" lon="6.28195">
        <ele>402.8</ele>
        <time>2022-02-07T13:42:04Z</time>
      </trkpt>
      <trkpt lat="43.55082" lon="6.28177">
        <ele>402.2</ele>
        <time>2022-02-07T13:42:16Z</time>
      </trkpt>
      <trkpt lat="43.55086" lon="6.28161">
        <ele>401.5</ele>
        <time>2022-02-07T13:42:27Z</time>
      </trkpt>
      <trkpt lat="43.55089" lon="6.28143">
        <ele>401.2</ele>
        <time>2022-02-07T13:42:37Z</time>
      </trkpt>
      <trkpt lat="43.55089" lon="6.28124">
        <ele>400.7</ele>
        <time>2022-02-07T13:42:48Z</time>
      </trkpt>
      <trkpt lat="43.5509" lon="6.28106">
        <ele>400.2</ele>
        <time>2022-02-07T13:42:58Z</time>
      </trkpt>
      <trkpt lat="43.55088" lon="6.28089">
        <ele>400.3</ele>
        <time>2022-02-07T13:43:09Z</time>
      </trkpt>
      <trkpt lat="43.55086" lon="6.28073">
        <ele>400.5</ele>
        <time>2022-02-07T13:43:19Z</time>
      </trkpt>
      <trkpt lat="43.55088" lon="6.28058">
        <ele>400.1</ele>
        <time>2022-02-07T13:43:27Z</time>
      </trkpt>
      <trkpt lat="43.55091" lon="6.28043">
        <ele>398.9</ele>
        <time>2022-02-07T13:43:36Z</time>
      </trkpt>
      <trkpt lat="43.55092" lon="6.28027">
        <ele>398.1</ele>
        <time>2022-02-07T13:43:46Z</time>
      </trkpt>
      <trkpt lat="43.55093" lon="6.28011">
        <ele>397.9</ele>
        <time>2022-02-07T13:43:56Z</time>
      </trkpt>
      <trkpt lat="43.55095" lon="6.27992">
        <ele>397.5</ele>
        <time>2022-02-07T13:44:07Z</time>
      </trkpt>
      <trkpt lat="43.55097" lon="6.27975">
        <ele>397</ele>
        <time>2022-02-07T13:44:20Z</time>
      </trkpt>
      <trkpt lat="43.55097" lon="6.27954">
        <ele>395.8</ele>
        <time>2022-02-07T13:44:31Z</time>
      </trkpt>
      <trkpt lat="43.55095" lon="6.27933">
        <ele>395.3</ele>
        <time>2022-02-07T13:44:44Z</time>
      </trkpt>
      <trkpt lat="43.55093" lon="6.27909">
        <ele>394.9</ele>
        <time>2022-02-07T13:44:55Z</time>
      </trkpt>
      <trkpt lat="43.55098" lon="6.27904">
        <ele>394.3</ele>
        <time>2022-02-07T13:45:27Z</time>
      </trkpt>
      <trkpt lat="43.551" lon="6.279">
        <ele>393.9</ele>
        <time>2022-02-07T13:49:09Z</time>
      </trkpt>
      <trkpt lat="43.551" lon="6.27883">
        <ele>393.1</ele>
        <time>2022-02-07T13:49:20Z</time>
      </trkpt>
      <trkpt lat="43.55107" lon="6.27869">
        <ele>392.3</ele>
        <time>2022-02-07T13:49:30Z</time>
      </trkpt>
      <trkpt lat="43.55111" lon="6.27854">
        <ele>392</ele>
        <time>2022-02-07T13:49:39Z</time>
      </trkpt>
      <trkpt lat="43.5511" lon="6.2784">
        <ele>392</ele>
        <time>2022-02-07T13:49:49Z</time>
      </trkpt>
      <trkpt lat="43.5511" lon="6.27825">
        <ele>391.7</ele>
        <time>2022-02-07T13:49:59Z</time>
      </trkpt>
      <trkpt lat="43.55107" lon="6.27811">
        <ele>391.2</ele>
        <time>2022-02-07T13:50:08Z</time>
      </trkpt>
      <trkpt lat="43.55108" lon="6.27793">
        <ele>390.1</ele>
        <time>2022-02-07T13:50:17Z</time>
      </trkpt>
      <trkpt lat="43.55105" lon="6.27778">
        <ele>389.2</ele>
        <time>2022-02-07T13:50:27Z</time>
      </trkpt>
      <trkpt lat="43.55108" lon="6.2776">
        <ele>387.9</ele>
        <time>2022-02-07T13:50:38Z</time>
      </trkpt>
      <trkpt lat="43.55101" lon="6.27743">
        <ele>387.1</ele>
        <time>2022-02-07T13:50:47Z</time>
      </trkpt>
      <trkpt lat="43.55099" lon="6.27728">
        <ele>386</ele>
        <time>2022-02-07T13:50:57Z</time>
      </trkpt>
      <trkpt lat="43.55099" lon="6.27712">
        <ele>385.5</ele>
        <time>2022-02-07T13:51:05Z</time>
      </trkpt>
      <trkpt lat="43.55096" lon="6.27698">
        <ele>385.9</ele>
        <time>2022-02-07T13:51:13Z</time>
      </trkpt>
      <trkpt lat="43.55093" lon="6.27682">
        <ele>385.7</ele>
        <time>2022-02-07T13:51:23Z</time>
      </trkpt>
      <trkpt lat="43.55091" lon="6.27665">
        <ele>385.6</ele>
        <time>2022-02-07T13:51:34Z</time>
      </trkpt>
      <trkpt lat="43.55088" lon="6.27651">
        <ele>386.3</ele>
        <time>2022-02-07T13:51:42Z</time>
      </trkpt>
      <trkpt lat="43.55088" lon="6.27635">
        <ele>386.1</ele>
        <time>2022-02-07T13:51:51Z</time>
      </trkpt>
      <trkpt lat="43.5509" lon="6.27622">
        <ele>385</ele>
        <time>2022-02-07T13:52:00Z</time>
      </trkpt>
      <trkpt lat="43.55089" lon="6.27607">
        <ele>384.9</ele>
        <time>2022-02-07T13:52:09Z</time>
      </trkpt>
      <trkpt lat="43.55087" lon="6.27593">
        <ele>385.1</ele>
        <time>2022-02-07T13:52:19Z</time>
      </trkpt>
      <trkpt lat="43.55083" lon="6.27576">
        <ele>385.2</ele>
        <time>2022-02-07T13:52:29Z</time>
      </trkpt>
      <trkpt lat="43.55084" lon="6.27561">
        <ele>383.3</ele>
        <time>2022-02-07T13:52:38Z</time>
      </trkpt>
      <trkpt lat="43.55086" lon="6.27546">
        <ele>381.5</ele>
        <time>2022-02-07T13:52:47Z</time>
      </trkpt>
      <trkpt lat="43.55084" lon="6.27525">
        <ele>381.8</ele>
        <time>2022-02-07T13:52:56Z</time>
      </trkpt>
      <trkpt lat="43.55085" lon="6.2751">
        <ele>381.5</ele>
        <time>2022-02-07T13:53:08Z</time>
      </trkpt>
      <trkpt lat="43.55083" lon="6.27505">
        <ele>382</ele>
        <time>2022-02-07T13:53:37Z</time>
      </trkpt>
      <trkpt lat="43.55068" lon="6.27499">
        <ele>384.2</ele>
        <time>2022-02-07T13:53:54Z</time>
      </trkpt>
      <trkpt lat="43.55053" lon="6.2749">
        <ele>384.6</ele>
        <time>2022-02-07T13:54:03Z</time>
      </trkpt>
      <trkpt lat="43.55043" lon="6.27484">
        <ele>383.7</ele>
        <time>2022-02-07T13:54:12Z</time>
      </trkpt>
      <trkpt lat="43.55035" lon="6.2748">
        <ele>383.1</ele>
        <time>2022-02-07T13:54:20Z</time>
      </trkpt>
      <trkpt lat="43.55027" lon="6.27476">
        <ele>382.6</ele>
        <time>2022-02-07T13:54:29Z</time>
      </trkpt>
      <trkpt lat="43.55017" lon="6.27471">
        <ele>382.2</ele>
        <time>2022-02-07T13:54:37Z</time>
      </trkpt>
      <trkpt lat="43.55006" lon="6.27464">
        <ele>381.5</ele>
        <time>2022-02-07T13:54:47Z</time>
      </trkpt>
      <trkpt lat="43.54996" lon="6.2746">
        <ele>380.8</ele>
        <time>2022-02-07T13:54:57Z</time>
      </trkpt>
      <trkpt lat="43.54983" lon="6.27454">
        <ele>379.7</ele>
        <time>2022-02-07T13:55:06Z</time>
      </trkpt>
      <trkpt lat="43.54975" lon="6.2745">
        <ele>379</ele>
        <time>2022-02-07T13:55:15Z</time>
      </trkpt>
      <trkpt lat="43.54964" lon="6.27447">
        <ele>378.4</ele>
        <time>2022-02-07T13:55:24Z</time>
      </trkpt>
      <trkpt lat="43.54956" lon="6.27437">
        <ele>376.6</ele>
        <time>2022-02-07T13:55:36Z</time>
      </trkpt>
      <trkpt lat="43.54947" lon="6.27422">
        <ele>373.3</ele>
        <time>2022-02-07T13:55:47Z</time>
      </trkpt>
      <trkpt lat="43.54938" lon="6.27413">
        <ele>371.8</ele>
        <time>2022-02-07T13:55:57Z</time>
      </trkpt>
      <trkpt lat="43.54928" lon="6.27404">
        <ele>370.8</ele>
        <time>2022-02-07T13:56:06Z</time>
      </trkpt>
      <trkpt lat="43.54918" lon="6.27394">
        <ele>369</ele>
        <time>2022-02-07T13:56:17Z</time>
      </trkpt>
      <trkpt lat="43.5491" lon="6.27385">
        <ele>368.1</ele>
        <time>2022-02-07T13:56:27Z</time>
      </trkpt>
      <trkpt lat="43.549" lon="6.27374">
        <ele>367.3</ele>
        <time>2022-02-07T13:56:37Z</time>
      </trkpt>
      <trkpt lat="43.54889" lon="6.27362">
        <ele>365.2</ele>
        <time>2022-02-07T13:56:48Z</time>
      </trkpt>
      <trkpt lat="43.54882" lon="6.27355">
        <ele>365.3</ele>
        <time>2022-02-07T13:56:57Z</time>
      </trkpt>
      <trkpt lat="43.54873" lon="6.27345">
        <ele>364.8</ele>
        <time>2022-02-07T13:57:07Z</time>
      </trkpt>
      <trkpt lat="43.54862" lon="6.27334">
        <ele>363.1</ele>
        <time>2022-02-07T13:57:17Z</time>
      </trkpt>
      <trkpt lat="43.54852" lon="6.27325">
        <ele>362.6</ele>
        <time>2022-02-07T13:57:29Z</time>
      </trkpt>
      <trkpt lat="43.54841" lon="6.27313">
        <ele>360.9</ele>
        <time>2022-02-07T13:57:39Z</time>
      </trkpt>
      <trkpt lat="43.54828" lon="6.27303">
        <ele>358.3</ele>
        <time>2022-02-07T13:57:49Z</time>
      </trkpt>
      <trkpt lat="43.54817" lon="6.27298">
        <ele>357</ele>
        <time>2022-02-07T13:57:58Z</time>
      </trkpt>
      <trkpt lat="43.54807" lon="6.27302">
        <ele>356</ele>
        <time>2022-02-07T13:58:10Z</time>
      </trkpt>
      <trkpt lat="43.54806" lon="6.27304">
        <ele>356</ele>
        <time>2022-02-07T13:58:36Z</time>
      </trkpt>
      <trkpt lat="43.548" lon="6.27315">
        <ele>356.6</ele>
        <time>2022-02-07T13:58:49Z</time>
      </trkpt>
      <trkpt lat="43.54798" lon="6.27335">
        <ele>357.9</ele>
        <time>2022-02-07T13:59:03Z</time>
      </trkpt>
      <trkpt lat="43.54798" lon="6.27354">
        <ele>359.6</ele>
        <time>2022-02-07T13:59:15Z</time>
      </trkpt>
      <trkpt lat="43.548" lon="6.27372">
        <ele>360.8</ele>
        <time>2022-02-07T13:59:26Z</time>
      </trkpt>
      <trkpt lat="43.54802" lon="6.27386">
        <ele>361.6</ele>
        <time>2022-02-07T13:59:37Z</time>
      </trkpt>
      <trkpt lat="43.54808" lon="6.27402">
        <ele>362.5</ele>
        <time>2022-02-07T13:59:49Z</time>
      </trkpt>
      <trkpt lat="43.54814" lon="6.27418">
        <ele>364</ele>
        <time>2022-02-07T13:59:59Z</time>
      </trkpt>
      <trkpt lat="43.54819" lon="6.27432">
        <ele>365.1</ele>
        <time>2022-02-07T14:00:09Z</time>
      </trkpt>
      <trkpt lat="43.54819" lon="6.27446">
        <ele>365.5</ele>
        <time>2022-02-07T14:00:18Z</time>
      </trkpt>
      <trkpt lat="43.54816" lon="6.27461">
        <ele>365.3</ele>
        <time>2022-02-07T14:00:27Z</time>
      </trkpt>
      <trkpt lat="43.54815" lon="6.27477">
        <ele>365.7</ele>
        <time>2022-02-07T14:00:40Z</time>
      </trkpt>
      <trkpt lat="43.54813" lon="6.27491">
        <ele>366.5</ele>
        <time>2022-02-07T14:01:30Z</time>
      </trkpt>
      <trkpt lat="43.54821" lon="6.27511">
        <ele>367.5</ele>
        <time>2022-02-07T14:01:55Z</time>
      </trkpt>
      <trkpt lat="43.5482" lon="6.27519">
        <ele>367.5</ele>
        <time>2022-02-07T14:02:20Z</time>
      </trkpt>
      <trkpt lat="43.54821" lon="6.27541">
        <ele>369.1</ele>
        <time>2022-02-07T14:07:02Z</time>
      </trkpt>
      <trkpt lat="43.5482" lon="6.27557">
        <ele>371.3</ele>
        <time>2022-02-07T14:07:15Z</time>
      </trkpt>
      <trkpt lat="43.54822" lon="6.27576">
        <ele>374.2</ele>
        <time>2022-02-07T14:07:26Z</time>
      </trkpt>
      <trkpt lat="43.54815" lon="6.27586">
        <ele>375.1</ele>
        <time>2022-02-07T14:07:38Z</time>
      </trkpt>
      <trkpt lat="43.54808" lon="6.276">
        <ele>376</ele>
        <time>2022-02-07T14:07:52Z</time>
      </trkpt>
      <trkpt lat="43.54799" lon="6.27613">
        <ele>377.2</ele>
        <time>2022-02-07T14:08:04Z</time>
      </trkpt>
      <trkpt lat="43.54793" lon="6.27631">
        <ele>378.8</ele>
        <time>2022-02-07T14:08:18Z</time>
      </trkpt>
      <trkpt lat="43.54789" lon="6.27652">
        <ele>380.5</ele>
        <time>2022-02-07T14:08:29Z</time>
      </trkpt>
      <trkpt lat="43.54789" lon="6.27668">
        <ele>381.7</ele>
        <time>2022-02-07T14:08:40Z</time>
      </trkpt>
      <trkpt lat="43.54785" lon="6.27682">
        <ele>382.3</ele>
        <time>2022-02-07T14:08:50Z</time>
      </trkpt>
      <trkpt lat="43.54785" lon="6.277">
        <ele>383.9</ele>
        <time>2022-02-07T14:09:01Z</time>
      </trkpt>
      <trkpt lat="43.54788" lon="6.27715">
        <ele>385.9</ele>
        <time>2022-02-07T14:09:12Z</time>
      </trkpt>
      <trkpt lat="43.5479" lon="6.2773">
        <ele>387.3</ele>
        <time>2022-02-07T14:09:23Z</time>
      </trkpt>
      <trkpt lat="43.5479" lon="6.27741">
        <ele>388.1</ele>
        <time>2022-02-07T14:09:55Z</time>
      </trkpt>
      <trkpt lat="43.54795" lon="6.27756">
        <ele>390.1</ele>
        <time>2022-02-07T14:10:10Z</time>
      </trkpt>
      <trkpt lat="43.54802" lon="6.27771">
        <ele>392.7</ele>
        <time>2022-02-07T14:10:24Z</time>
      </trkpt>
      <trkpt lat="43.54811" lon="6.27784">
        <ele>395.4</ele>
        <time>2022-02-07T14:10:37Z</time>
      </trkpt>
      <trkpt lat="43.54813" lon="6.27793">
        <ele>396.4</ele>
        <time>2022-02-07T14:10:49Z</time>
      </trkpt>
      <trkpt lat="43.5481" lon="6.27799">
        <ele>396.2</ele>
        <time>2022-02-07T14:11:21Z</time>
      </trkpt>
      <trkpt lat="43.54814" lon="6.27806">
        <ele>397.6</ele>
        <time>2022-02-07T14:14:12Z</time>
      </trkpt>
      <trkpt lat="43.54817" lon="6.27819">
        <ele>398.8</ele>
        <time>2022-02-07T14:14:22Z</time>
      </trkpt>
      <trkpt lat="43.54814" lon="6.27827">
        <ele>398.8</ele>
        <time>2022-02-07T14:14:32Z</time>
      </trkpt>
      <trkpt lat="43.54809" lon="6.27829">
        <ele>398.2</ele>
      </trkpt>
      <trkpt lat="43.54805" lon="6.27831">
        <ele>397.8</ele>
        <time>2022-02-07T14:14:47Z</time>
      </trkpt>
      <trkpt lat="43.54799" lon="6.27831">
        <ele>397.3</ele>
      </trkpt>
      <trkpt lat="43.54796" lon="6.27833">
        <ele>397.2</ele>
      </trkpt>
      <trkpt lat="43.54795" lon="6.27837">
        <ele>397.6</ele>
        <time>2022-02-07T14:14:59Z</time>
      </trkpt>
      <trkpt lat="43.54801" lon="6.27842">
        <ele>398.6</ele>
      </trkpt>
      <trkpt lat="43.54805" lon="6.27849">
        <ele>399.7</ele>
        <time>2022-02-07T14:15:16Z</time>
      </trkpt>
      <trkpt lat="43.54806" lon="6.27864">
        <ele>401.4</ele>
        <time>2022-02-07T14:15:33Z</time>
      </trkpt>
      <trkpt lat="43.548" lon="6.27877">
        <ele>402.4</ele>
        <time>2022-02-07T14:15:45Z</time>
      </trkpt>
      <trkpt lat="43.54796" lon="6.27883">
        <ele>403</ele>
      </trkpt>
      <trkpt lat="43.54791" lon="6.27887">
        <ele>403.2</ele>
        <time>2022-02-07T14:15:57Z</time>
      </trkpt>
      <trkpt lat="43.54792" lon="6.27891">
        <ele>403.8</ele>
      </trkpt>
      <trkpt lat="43.54796" lon="6.27896">
        <ele>404.5</ele>
        <time>2022-02-07T14:16:19Z</time>
      </trkpt>
      <trkpt lat="43.54804" lon="6.27898">
        <ele>405</ele>
        <time>2022-02-07T14:16:50Z</time>
      </trkpt>
      <trkpt lat="43.54809" lon="6.27905">
        <ele>405.9</ele>
        <time>2022-02-07T14:17:17Z</time>
      </trkpt>
      <trkpt lat="43.54808" lon="6.27919">
        <ele>407.2</ele>
        <time>2022-02-07T14:17:41Z</time>
      </trkpt>
      <trkpt lat="43.54805" lon="6.27922">
        <ele>407.3</ele>
      </trkpt>
      <trkpt lat="43.54802" lon="6.27926">
        <ele>407.6</ele>
        <time>2022-02-07T14:18:05Z</time>
      </trkpt>
      <trkpt lat="43.54794" lon="6.27941">
        <ele>408.7</ele>
        <time>2022-02-07T14:18:19Z</time>
      </trkpt>
      <trkpt lat="43.54784" lon="6.27954">
        <ele>410</ele>
        <time>2022-02-07T14:18:34Z</time>
      </trkpt>
      <trkpt lat="43.54783" lon="6.27972">
        <ele>412</ele>
        <time>2022-02-07T14:18:47Z</time>
      </trkpt>
      <trkpt lat="43.54788" lon="6.27986">
        <ele>413.5</ele>
        <time>2022-02-07T14:18:59Z</time>
      </trkpt>
      <trkpt lat="43.54794" lon="6.28">
        <ele>415</ele>
        <time>2022-02-07T14:19:10Z</time>
      </trkpt>
      <trkpt lat="43.54796" lon="6.28013">
        <ele>416.3</ele>
        <time>2022-02-07T14:19:21Z</time>
      </trkpt>
      <trkpt lat="43.54798" lon="6.28029">
        <ele>417.7</ele>
        <time>2022-02-07T14:19:36Z</time>
      </trkpt>
      <trkpt lat="43.54798" lon="6.28043">
        <ele>418.6</ele>
        <time>2022-02-07T14:19:48Z</time>
      </trkpt>
      <trkpt lat="43.54793" lon="6.28052">
        <ele>419.7</ele>
        <time>2022-02-07T14:20:11Z</time>
      </trkpt>
      <trkpt lat="43.5479" lon="6.28051">
        <ele>419.7</ele>
        <time>2022-02-07T14:20:42Z</time>
      </trkpt>
      <trkpt lat="43.54776" lon="6.28045">
        <ele>420.2</ele>
        <time>2022-02-07T14:20:52Z</time>
      </trkpt>
      <trkpt lat="43.54772" lon="6.28047">
        <ele>420.3</ele>
      </trkpt>
      <trkpt lat="43.54767" lon="6.28049">
        <ele>420.5</ele>
        <time>2022-02-07T14:21:02Z</time>
      </trkpt>
      <trkpt lat="43.5476" lon="6.28059">
        <ele>421.4</ele>
        <time>2022-02-07T14:21:12Z</time>
      </trkpt>
      <trkpt lat="43.54753" lon="6.28067">
        <ele>422.2</ele>
        <time>2022-02-07T14:21:21Z</time>
      </trkpt>
      <trkpt lat="43.54741" lon="6.28074">
        <ele>422.9</ele>
        <time>2022-02-07T14:21:31Z</time>
      </trkpt>
      <trkpt lat="43.54729" lon="6.28073">
        <ele>422.5</ele>
        <time>2022-02-07T14:21:40Z</time>
      </trkpt>
      <trkpt lat="43.54718" lon="6.28073">
        <ele>422.5</ele>
        <time>2022-02-07T14:21:51Z</time>
      </trkpt>
      <trkpt lat="43.54706" lon="6.28074">
        <ele>422.9</ele>
        <time>2022-02-07T14:22:02Z</time>
      </trkpt>
      <trkpt lat="43.54694" lon="6.28069">
        <ele>422.4</ele>
        <time>2022-02-07T14:22:14Z</time>
      </trkpt>
      <trkpt lat="43.54681" lon="6.28067">
        <ele>423.7</ele>
        <time>2022-02-07T14:22:26Z</time>
      </trkpt>
      <trkpt lat="43.5467" lon="6.28067">
        <ele>424.8</ele>
        <time>2022-02-07T14:22:36Z</time>
      </trkpt>
      <trkpt lat="43.54652" lon="6.28061">
        <ele>426.6</ele>
        <time>2022-02-07T14:22:46Z</time>
      </trkpt>
      <trkpt lat="43.54646" lon="6.28051">
        <ele>426.8</ele>
        <time>2022-02-07T14:22:56Z</time>
      </trkpt>
      <trkpt lat="43.54643" lon="6.28038">
        <ele>426.7</ele>
        <time>2022-02-07T14:23:06Z</time>
      </trkpt>
      <trkpt lat="43.54639" lon="6.28026">
        <ele>426.9</ele>
        <time>2022-02-07T14:23:20Z</time>
      </trkpt>
      <trkpt lat="43.54631" lon="6.28019">
        <ele>428</ele>
        <time>2022-02-07T14:23:36Z</time>
      </trkpt>
      <trkpt lat="43.54615" lon="6.28017">
        <ele>431</ele>
        <time>2022-02-07T14:23:50Z</time>
      </trkpt>
      <trkpt lat="43.546" lon="6.28015">
        <ele>432.7</ele>
        <time>2022-02-07T14:24:02Z</time>
      </trkpt>
      <trkpt lat="43.5459" lon="6.28007">
        <ele>433.2</ele>
        <time>2022-02-07T14:24:13Z</time>
      </trkpt>
      <trkpt lat="43.54579" lon="6.28004">
        <ele>433.7</ele>
        <time>2022-02-07T14:24:23Z</time>
      </trkpt>
      <trkpt lat="43.54569" lon="6.28">
        <ele>434.1</ele>
        <time>2022-02-07T14:24:34Z</time>
      </trkpt>
      <trkpt lat="43.54557" lon="6.27999">
        <ele>434.8</ele>
        <time>2022-02-07T14:24:46Z</time>
      </trkpt>
      <trkpt lat="43.54547" lon="6.27999">
        <ele>434.9</ele>
        <time>2022-02-07T14:24:58Z</time>
      </trkpt>
      <trkpt lat="43.54534" lon="6.27997">
        <ele>434.7</ele>
        <time>2022-02-07T14:25:10Z</time>
      </trkpt>
      <trkpt lat="43.54518" lon="6.28004">
        <ele>435.9</ele>
        <time>2022-02-07T14:25:24Z</time>
      </trkpt>
      <trkpt lat="43.54508" lon="6.28008">
        <ele>436.9</ele>
        <time>2022-02-07T14:25:36Z</time>
      </trkpt>
      <trkpt lat="43.54491" lon="6.28012">
        <ele>438</ele>
        <time>2022-02-07T14:25:48Z</time>
      </trkpt>
      <trkpt lat="43.54477" lon="6.28012">
        <ele>438.2</ele>
        <time>2022-02-07T14:26:02Z</time>
      </trkpt>
      <trkpt lat="43.54463" lon="6.28015">
        <ele>438.9</ele>
        <time>2022-02-07T14:26:16Z</time>
      </trkpt>
      <trkpt lat="43.54446" lon="6.28013">
        <ele>439.3</ele>
        <time>2022-02-07T14:26:29Z</time>
      </trkpt>
      <trkpt lat="43.54434" lon="6.28008">
        <ele>439.2</ele>
        <time>2022-02-07T14:26:40Z</time>
      </trkpt>
      <trkpt lat="43.54421" lon="6.27997">
        <ele>438.4</ele>
        <time>2022-02-07T14:26:53Z</time>
      </trkpt>
      <trkpt lat="43.54415" lon="6.27996">
        <ele>438.4</ele>
      </trkpt>
      <trkpt lat="43.54411" lon="6.27996">
        <ele>438.3</ele>
      </trkpt>
      <trkpt lat="43.54407" lon="6.27999">
        <ele>438.5</ele>
        <time>2022-02-07T14:27:41Z</time>
      </trkpt>
      <trkpt lat="43.54401" lon="6.28004">
        <ele>438.8</ele>
        <time>2022-02-07T14:29:11Z</time>
      </trkpt>
      <trkpt lat="43.54396" lon="6.28004">
        <ele>438.7</ele>
      </trkpt>
      <trkpt lat="43.54391" lon="6.2801">
        <ele>439.2</ele>
        <time>2022-02-07T14:29:23Z</time>
      </trkpt>
      <trkpt lat="43.54381" lon="6.28025">
        <ele>440.2</ele>
        <time>2022-02-07T14:29:32Z</time>
      </trkpt>
      <trkpt lat="43.54375" lon="6.28036">
        <ele>441</ele>
        <time>2022-02-07T14:29:40Z</time>
      </trkpt>
      <trkpt lat="43.54368" lon="6.28046">
        <ele>441.6</ele>
        <time>2022-02-07T14:29:48Z</time>
      </trkpt>
      <trkpt lat="43.54362" lon="6.28057">
        <ele>442.2</ele>
        <time>2022-02-07T14:29:56Z</time>
      </trkpt>
      <trkpt lat="43.54355" lon="6.28066">
        <ele>442.8</ele>
        <time>2022-02-07T14:30:04Z</time>
      </trkpt>
      <trkpt lat="43.54348" lon="6.28075">
        <ele>442.9</ele>
        <time>2022-02-07T14:30:12Z</time>
      </trkpt>
      <trkpt lat="43.54341" lon="6.28086">
        <ele>442.9</ele>
        <time>2022-02-07T14:30:20Z</time>
      </trkpt>
      <trkpt lat="43.54335" lon="6.28096">
        <ele>442.7</ele>
        <time>2022-02-07T14:30:33Z</time>
      </trkpt>
      <trkpt lat="43.54329" lon="6.28107">
        <ele>442.9</ele>
        <time>2022-02-07T14:30:43Z</time>
      </trkpt>
      <trkpt lat="43.54327" lon="6.28124">
        <ele>442.8</ele>
        <time>2022-02-07T14:30:54Z</time>
      </trkpt>
      <trkpt lat="43.54322" lon="6.28138">
        <ele>442.2</ele>
        <time>2022-02-07T14:31:11Z</time>
      </trkpt>
      <trkpt lat="43.54321" lon="6.28156">
        <ele>440.9</ele>
        <time>2022-02-07T14:31:23Z</time>
      </trkpt>
      <trkpt lat="43.54322" lon="6.28171">
        <ele>440.1</ele>
        <time>2022-02-07T14:31:33Z</time>
      </trkpt>
      <trkpt lat="43.54316" lon="6.28184">
        <ele>438.1</ele>
        <time>2022-02-07T14:31:48Z</time>
      </trkpt>
      <trkpt lat="43.54309" lon="6.28199">
        <ele>435.5</ele>
        <time>2022-02-07T14:32:01Z</time>
      </trkpt>
      <trkpt lat="43.54305" lon="6.28215">
        <ele>433.5</ele>
        <time>2022-02-07T14:32:11Z</time>
      </trkpt>
      <trkpt lat="43.543" lon="6.28231">
        <ele>432.3</ele>
        <time>2022-02-07T14:32:21Z</time>
      </trkpt>
      <trkpt lat="43.54296" lon="6.28244">
        <ele>431</ele>
        <time>2022-02-07T14:32:32Z</time>
      </trkpt>
      <trkpt lat="43.54289" lon="6.2826">
        <ele>428.5</ele>
        <time>2022-02-07T14:32:44Z</time>
      </trkpt>
      <trkpt lat="43.54285" lon="6.28277">
        <ele>425.6</ele>
        <time>2022-02-07T14:32:55Z</time>
      </trkpt>
      <trkpt lat="43.54283" lon="6.28292">
        <ele>423.7</ele>
        <time>2022-02-07T14:33:05Z</time>
      </trkpt>
      <trkpt lat="43.54281" lon="6.28306">
        <ele>422</ele>
        <time>2022-02-07T14:33:14Z</time>
      </trkpt>
      <trkpt lat="43.54277" lon="6.28319">
        <ele>420.1</ele>
        <time>2022-02-07T14:33:25Z</time>
      </trkpt>
      <trkpt lat="43.54273" lon="6.28334">
        <ele>419.1</ele>
        <time>2022-02-07T14:33:37Z</time>
      </trkpt>
      <trkpt lat="43.54271" lon="6.28351">
        <ele>417.5</ele>
        <time>2022-02-07T14:33:50Z</time>
      </trkpt>
      <trkpt lat="43.54268" lon="6.28369">
        <ele>415.5</ele>
        <time>2022-02-07T14:34:02Z</time>
      </trkpt>
      <trkpt lat="43.54268" lon="6.28387">
        <ele>413.7</ele>
        <time>2022-02-07T14:34:15Z</time>
      </trkpt>
      <trkpt lat="43.54266" lon="6.28403">
        <ele>411.8</ele>
        <time>2022-02-07T14:34:29Z</time>
      </trkpt>
      <trkpt lat="43.54258" lon="6.28423">
        <ele>409</ele>
        <time>2022-02-07T14:34:44Z</time>
      </trkpt>
      <trkpt lat="43.5425" lon="6.28437">
        <ele>407.2</ele>
        <time>2022-02-07T14:34:57Z</time>
      </trkpt>
      <trkpt lat="43.54241" lon="6.28455">
        <ele>406.4</ele>
        <time>2022-02-07T14:35:11Z</time>
      </trkpt>
      <trkpt lat="43.54228" lon="6.28474">
        <ele>404.3</ele>
        <time>2022-02-07T14:35:26Z</time>
      </trkpt>
      <trkpt lat="43.54215" lon="6.28492">
        <ele>403.4</ele>
        <time>2022-02-07T14:35:38Z</time>
      </trkpt>
      <trkpt lat="43.54206" lon="6.28506">
        <ele>402.8</ele>
        <time>2022-02-07T14:35:51Z</time>
      </trkpt>
      <trkpt lat="43.54196" lon="6.28523">
        <ele>402.1</ele>
        <time>2022-02-07T14:36:04Z</time>
      </trkpt>
      <trkpt lat="43.54191" lon="6.28538">
        <ele>402</ele>
        <time>2022-02-07T14:36:16Z</time>
      </trkpt>
      <trkpt lat="43.54181" lon="6.28561">
        <ele>401.3</ele>
        <time>2022-02-07T14:36:27Z</time>
      </trkpt>
      <trkpt lat="43.5418" lon="6.28579">
        <ele>402.1</ele>
        <time>2022-02-07T14:36:39Z</time>
      </trkpt>
      <trkpt lat="43.54176" lon="6.28598">
        <ele>402.2</ele>
        <time>2022-02-07T14:36:50Z</time>
      </trkpt>
      <trkpt lat="43.5417" lon="6.28613">
        <ele>401.7</ele>
        <time>2022-02-07T14:36:59Z</time>
      </trkpt>
      <trkpt lat="43.54166" lon="6.28624">
        <ele>401.4</ele>
        <time>2022-02-07T14:37:07Z</time>
      </trkpt>
      <trkpt lat="43.5416" lon="6.28636">
        <ele>400.8</ele>
        <time>2022-02-07T14:37:19Z</time>
      </trkpt>
      <trkpt lat="43.54151" lon="6.28646">
        <ele>399.7</ele>
        <time>2022-02-07T14:37:29Z</time>
      </trkpt>
      <trkpt lat="43.5414" lon="6.28656">
        <ele>398.2</ele>
        <time>2022-02-07T14:37:40Z</time>
      </trkpt>
      <trkpt lat="43.54129" lon="6.28663">
        <ele>396.8</ele>
        <time>2022-02-07T14:37:53Z</time>
      </trkpt>
      <trkpt lat="43.54117" lon="6.28663">
        <ele>395.4</ele>
        <time>2022-02-07T14:38:06Z</time>
      </trkpt>
      <trkpt lat="43.54105" lon="6.28665">
        <ele>393.9</ele>
        <time>2022-02-07T14:38:16Z</time>
      </trkpt>
      <trkpt lat="43.54093" lon="6.28669">
        <ele>392.4</ele>
        <time>2022-02-07T14:38:28Z</time>
      </trkpt>
      <trkpt lat="43.54081" lon="6.28673">
        <ele>390.9</ele>
        <time>2022-02-07T14:38:39Z</time>
      </trkpt>
      <trkpt lat="43.54072" lon="6.28673">
        <ele>389.8</ele>
        <time>2022-02-07T14:40:12Z</time>
      </trkpt>
      <trkpt lat="43.54072" lon="6.28672">
        <ele>389.8</ele>
        <time>2022-02-07T14:41:26Z</time>
      </trkpt>
      <trkpt lat="43.54062" lon="6.2867">
        <ele>388.7</ele>
        <time>2022-02-07T14:41:56Z</time>
      </trkpt>
      <trkpt lat="43.54053" lon="6.28668">
        <ele>387.6</ele>
        <time>2022-02-07T14:42:15Z</time>
      </trkpt>
      <trkpt lat="43.5404" lon="6.28664">
        <ele>386.2</ele>
        <time>2022-02-07T14:42:30Z</time>
      </trkpt>
      <trkpt lat="43.54026" lon="6.2867">
        <ele>384.8</ele>
        <time>2022-02-07T14:42:43Z</time>
      </trkpt>
      <trkpt lat="43.54019" lon="6.28681">
        <ele>384.2</ele>
        <time>2022-02-07T14:42:53Z</time>
      </trkpt>
      <trkpt lat="43.54016" lon="6.28695">
        <ele>384</ele>
        <time>2022-02-07T14:43:03Z</time>
      </trkpt>
      <trkpt lat="43.5402" lon="6.28711">
        <ele>383.2</ele>
        <time>2022-02-07T14:43:14Z</time>
      </trkpt>
      <trkpt lat="43.5403" lon="6.2872">
        <ele>383.2</ele>
        <time>2022-02-07T14:43:25Z</time>
      </trkpt>
      <trkpt lat="43.5404" lon="6.28722">
        <ele>383.9</ele>
        <time>2022-02-07T14:43:36Z</time>
      </trkpt>
      <trkpt lat="43.54049" lon="6.28731">
        <ele>384.2</ele>
        <time>2022-02-07T14:43:45Z</time>
      </trkpt>
      <trkpt lat="43.54056" lon="6.28744">
        <ele>384.2</ele>
        <time>2022-02-07T14:43:54Z</time>
      </trkpt>
      <trkpt lat="43.54064" lon="6.28754">
        <ele>384.1</ele>
        <time>2022-02-07T14:44:03Z</time>
      </trkpt>
      <trkpt lat="43.54075" lon="6.28758">
        <ele>384.3</ele>
        <time>2022-02-07T14:44:11Z</time>
      </trkpt>
      <trkpt lat="43.54083" lon="6.28763">
        <ele>384.5</ele>
        <time>2022-02-07T14:44:18Z</time>
      </trkpt>
      <trkpt lat="43.54092" lon="6.28772">
        <ele>384.8</ele>
        <time>2022-02-07T14:44:27Z</time>
      </trkpt>
      <trkpt lat="43.54099" lon="6.28783">
        <ele>384.8</ele>
        <time>2022-02-07T14:44:36Z</time>
      </trkpt>
      <trkpt lat="43.54107" lon="6.28794">
        <ele>384.5</ele>
        <time>2022-02-07T14:44:44Z</time>
      </trkpt>
      <trkpt lat="43.54116" lon="6.28803">
        <ele>384.5</ele>
        <time>2022-02-07T14:44:52Z</time>
      </trkpt>
      <trkpt lat="43.54124" lon="6.2881">
        <ele>384.5</ele>
        <time>2022-02-07T14:44:59Z</time>
      </trkpt>
      <trkpt lat="43.54132" lon="6.28817">
        <ele>384.4</ele>
        <time>2022-02-07T14:45:08Z</time>
      </trkpt>
      <trkpt lat="43.54141" lon="6.28822">
        <ele>384.4</ele>
        <time>2022-02-07T14:45:16Z</time>
      </trkpt>
      <trkpt lat="43.54151" lon="6.28826">
        <ele>384.6</ele>
        <time>2022-02-07T14:45:24Z</time>
      </trkpt>
      <trkpt lat="43.5416" lon="6.2883">
        <ele>384.8</ele>
        <time>2022-02-07T14:45:33Z</time>
      </trkpt>
      <trkpt lat="43.5417" lon="6.28836">
        <ele>385.5</ele>
        <time>2022-02-07T14:45:42Z</time>
      </trkpt>
      <trkpt lat="43.54178" lon="6.28845">
        <ele>386.3</ele>
        <time>2022-02-07T14:45:51Z</time>
      </trkpt>
      <trkpt lat="43.54189" lon="6.28857">
        <ele>386.9</ele>
        <time>2022-02-07T14:46:00Z</time>
      </trkpt>
      <trkpt lat="43.54198" lon="6.28865">
        <ele>387.3</ele>
        <time>2022-02-07T14:46:09Z</time>
      </trkpt>
      <trkpt lat="43.54207" lon="6.28877">
        <ele>388</ele>
        <time>2022-02-07T14:46:21Z</time>
      </trkpt>
      <trkpt lat="43.54215" lon="6.28896">
        <ele>388.1</ele>
        <time>2022-02-07T14:46:32Z</time>
      </trkpt>
      <trkpt lat="43.54216" lon="6.28915">
        <ele>388</ele>
        <time>2022-02-07T14:46:46Z</time>
      </trkpt>
      <trkpt lat="43.54216" lon="6.28936">
        <ele>388.2</ele>
        <time>2022-02-07T14:46:58Z</time>
      </trkpt>
      <trkpt lat="43.54228" lon="6.28953">
        <ele>388.8</ele>
        <time>2022-02-07T14:47:08Z</time>
      </trkpt>
      <trkpt lat="43.54234" lon="6.28966">
        <ele>390</ele>
        <time>2022-02-07T14:47:18Z</time>
      </trkpt>
      <trkpt lat="43.54237" lon="6.28981">
        <ele>391.2</ele>
        <time>2022-02-07T14:47:27Z</time>
      </trkpt>
      <trkpt lat="43.54243" lon="6.28996">
        <ele>392.5</ele>
        <time>2022-02-07T14:47:36Z</time>
      </trkpt>
      <trkpt lat="43.5425" lon="6.29006">
        <ele>393.5</ele>
        <time>2022-02-07T14:47:44Z</time>
      </trkpt>
      <trkpt lat="43.54256" lon="6.29011">
        <ele>394.1</ele>
        <time>2022-02-07T14:47:56Z</time>
      </trkpt>
      <trkpt lat="43.54267" lon="6.29016">
        <ele>394.7</ele>
        <time>2022-02-07T14:48:09Z</time>
      </trkpt>
      <trkpt lat="43.54281" lon="6.29023">
        <ele>395.2</ele>
        <time>2022-02-07T14:48:21Z</time>
      </trkpt>
      <trkpt lat="43.54293" lon="6.29026">
        <ele>396.1</ele>
        <time>2022-02-07T14:48:34Z</time>
      </trkpt>
      <trkpt lat="43.54305" lon="6.29027">
        <ele>396.9</ele>
        <time>2022-02-07T14:48:44Z</time>
      </trkpt>
      <trkpt lat="43.54316" lon="6.2903">
        <ele>398.3</ele>
        <time>2022-02-07T14:48:54Z</time>
      </trkpt>
      <trkpt lat="43.54324" lon="6.29042">
        <ele>399.7</ele>
        <time>2022-02-07T14:49:04Z</time>
      </trkpt>
      <trkpt lat="43.54332" lon="6.29058">
        <ele>401.2</ele>
        <time>2022-02-07T14:49:14Z</time>
      </trkpt>
      <trkpt lat="43.54341" lon="6.29064">
        <ele>402</ele>
        <time>2022-02-07T14:49:25Z</time>
      </trkpt>
      <trkpt lat="43.54352" lon="6.29062">
        <ele>402.1</ele>
        <time>2022-02-07T14:49:36Z</time>
      </trkpt>
      <trkpt lat="43.54363" lon="6.2907">
        <ele>402.4</ele>
        <time>2022-02-07T14:49:44Z</time>
      </trkpt>
      <trkpt lat="43.54367" lon="6.29086">
        <ele>402.9</ele>
        <time>2022-02-07T14:49:54Z</time>
      </trkpt>
      <trkpt lat="43.54367" lon="6.29102">
        <ele>403.5</ele>
        <time>2022-02-07T14:50:04Z</time>
      </trkpt>
      <trkpt lat="43.54374" lon="6.29117">
        <ele>404.1</ele>
        <time>2022-02-07T14:50:13Z</time>
      </trkpt>
      <trkpt lat="43.54379" lon="6.29131">
        <ele>405</ele>
        <time>2022-02-07T14:50:21Z</time>
      </trkpt>
      <trkpt lat="43.5438" lon="6.29145">
        <ele>406.1</ele>
        <time>2022-02-07T14:50:31Z</time>
      </trkpt>
      <trkpt lat="43.54385" lon="6.29157">
        <ele>407</ele>
        <time>2022-02-07T14:50:41Z</time>
      </trkpt>
      <trkpt lat="43.54395" lon="6.29158">
        <ele>406.9</ele>
        <time>2022-02-07T14:50:52Z</time>
      </trkpt>
      <trkpt lat="43.54403" lon="6.2916">
        <ele>406.9</ele>
        <time>2022-02-07T14:51:02Z</time>
      </trkpt>
      <trkpt lat="43.54414" lon="6.29168">
        <ele>407.2</ele>
        <time>2022-02-07T14:51:13Z</time>
      </trkpt>
      <trkpt lat="43.54424" lon="6.29178">
        <ele>408.6</ele>
        <time>2022-02-07T14:51:24Z</time>
      </trkpt>
      <trkpt lat="43.54434" lon="6.29179">
        <ele>409.3</ele>
        <time>2022-02-07T14:51:35Z</time>
      </trkpt>
      <trkpt lat="43.54446" lon="6.29176">
        <ele>409.5</ele>
        <time>2022-02-07T14:51:45Z</time>
      </trkpt>
      <trkpt lat="43.54456" lon="6.29183">
        <ele>409.6</ele>
        <time>2022-02-07T14:51:54Z</time>
      </trkpt>
      <trkpt lat="43.54466" lon="6.2919">
        <ele>409.7</ele>
        <time>2022-02-07T14:52:02Z</time>
      </trkpt>
      <trkpt lat="43.54476" lon="6.29196">
        <ele>410.1</ele>
        <time>2022-02-07T14:52:12Z</time>
      </trkpt>
      <trkpt lat="43.54487" lon="6.29196">
        <ele>410.2</ele>
        <time>2022-02-07T14:52:21Z</time>
      </trkpt>
      <trkpt lat="43.54498" lon="6.29199">
        <ele>410.7</ele>
        <time>2022-02-07T14:52:30Z</time>
      </trkpt>
      <trkpt lat="43.54507" lon="6.29203">
        <ele>411.5</ele>
        <time>2022-02-07T14:52:39Z</time>
      </trkpt>
      <trkpt lat="43.54516" lon="6.29205">
        <ele>411.8</ele>
        <time>2022-02-07T14:52:48Z</time>
      </trkpt>
      <trkpt lat="43.54524" lon="6.29198">
        <ele>411.8</ele>
        <time>2022-02-07T14:52:55Z</time>
      </trkpt>
      <trkpt lat="43.54532" lon="6.29191">
        <ele>411.9</ele>
        <time>2022-02-07T14:53:03Z</time>
      </trkpt>
      <trkpt lat="43.54541" lon="6.29184">
        <ele>411.7</ele>
        <time>2022-02-07T14:53:11Z</time>
      </trkpt>
      <trkpt lat="43.5455" lon="6.29178">
        <ele>411.7</ele>
        <time>2022-02-07T14:53:20Z</time>
      </trkpt>
      <trkpt lat="43.54562" lon="6.29176">
        <ele>411.1</ele>
        <time>2022-02-07T14:53:30Z</time>
      </trkpt>
      <trkpt lat="43.54571" lon="6.29174">
        <ele>410.3</ele>
        <time>2022-02-07T14:53:44Z</time>
      </trkpt>
      <trkpt lat="43.54581" lon="6.29178">
        <ele>409.3</ele>
      </trkpt>
      <trkpt lat="43.54587" lon="6.29182">
        <ele>408.6</ele>
        <time>2022-02-07T14:56:37Z</time>
      </trkpt>
      <trkpt lat="43.54599" lon="6.29183">
        <ele>407.4</ele>
        <time>2022-02-07T14:56:49Z</time>
      </trkpt>
      <trkpt lat="43.5461" lon="6.29188">
        <ele>405.9</ele>
        <time>2022-02-07T14:56:59Z</time>
      </trkpt>
      <trkpt lat="43.54619" lon="6.29195">
        <ele>404.7</ele>
        <time>2022-02-07T14:57:09Z</time>
      </trkpt>
      <trkpt lat="43.54627" lon="6.29203">
        <ele>404.6</ele>
        <time>2022-02-07T14:57:18Z</time>
      </trkpt>
      <trkpt lat="43.54637" lon="6.2921">
        <ele>404.1</ele>
        <time>2022-02-07T14:57:28Z</time>
      </trkpt>
      <trkpt lat="43.54646" lon="6.29216">
        <ele>403.6</ele>
        <time>2022-02-07T14:57:37Z</time>
      </trkpt>
      <trkpt lat="43.54655" lon="6.29226">
        <ele>402.8</ele>
        <time>2022-02-07T14:57:46Z</time>
      </trkpt>
      <trkpt lat="43.54663" lon="6.29233">
        <ele>402.2</ele>
        <time>2022-02-07T14:57:55Z</time>
      </trkpt>
      <trkpt lat="43.54674" lon="6.29235">
        <ele>401.7</ele>
        <time>2022-02-07T14:58:04Z</time>
      </trkpt>
      <trkpt lat="43.54686" lon="6.29237">
        <ele>401.3</ele>
        <time>2022-02-07T14:58:13Z</time>
      </trkpt>
      <trkpt lat="43.54692" lon="6.29246">
        <ele>401.1</ele>
        <time>2022-02-07T14:58:22Z</time>
      </trkpt>
      <trkpt lat="43.54694" lon="6.29258">
        <ele>400.7</ele>
        <time>2022-02-07T14:58:33Z</time>
      </trkpt>
      <trkpt lat="43.54692" lon="6.29273">
        <ele>400.3</ele>
        <time>2022-02-07T14:58:44Z</time>
      </trkpt>
      <trkpt lat="43.54688" lon="6.29284">
        <ele>400.8</ele>
        <time>2022-02-07T14:58:58Z</time>
      </trkpt>
      <trkpt lat="43.54679" lon="6.29299">
        <ele>402.2</ele>
        <time>2022-02-07T14:59:13Z</time>
      </trkpt>
      <trkpt lat="43.5467" lon="6.29302">
        <ele>402.7</ele>
        <time>2022-02-07T14:59:33Z</time>
      </trkpt>
      <trkpt lat="43.54658" lon="6.29305">
        <ele>403.3</ele>
        <time>2022-02-07T14:59:46Z</time>
      </trkpt>
      <trkpt lat="43.54644" lon="6.2931">
        <ele>403.6</ele>
        <time>2022-02-07T14:59:57Z</time>
      </trkpt>
      <trkpt lat="43.54631" lon="6.29318">
        <ele>403.3</ele>
        <time>2022-02-07T15:00:07Z</time>
      </trkpt>
      <trkpt lat="43.5462" lon="6.29325">
        <ele>402.8</ele>
        <time>2022-02-07T15:00:17Z</time>
      </trkpt>
      <trkpt lat="43.5461" lon="6.29339">
        <ele>401.7</ele>
        <time>2022-02-07T15:00:28Z</time>
      </trkpt>
      <trkpt lat="43.54606" lon="6.29354">
        <ele>400.7</ele>
        <time>2022-02-07T15:00:37Z</time>
      </trkpt>
      <trkpt lat="43.54603" lon="6.29367">
        <ele>399.7</ele>
        <time>2022-02-07T15:00:46Z</time>
      </trkpt>
      <trkpt lat="43.54596" lon="6.29378">
        <ele>399</ele>
        <time>2022-02-07T15:00:55Z</time>
      </trkpt>
      <trkpt lat="43.54595" lon="6.29396">
        <ele>397.9</ele>
        <time>2022-02-07T15:01:05Z</time>
      </trkpt>
      <trkpt lat="43.54595" lon="6.2941">
        <ele>396.9</ele>
        <time>2022-02-07T15:01:15Z</time>
      </trkpt>
      <trkpt lat="43.54595" lon="6.29428">
        <ele>396.3</ele>
        <time>2022-02-07T15:01:26Z</time>
      </trkpt>
      <trkpt lat="43.54596" lon="6.29445">
        <ele>396</ele>
        <time>2022-02-07T15:01:35Z</time>
      </trkpt>
      <trkpt lat="43.54598" lon="6.29459">
        <ele>395.5</ele>
        <time>2022-02-07T15:01:43Z</time>
      </trkpt>
      <trkpt lat="43.54599" lon="6.29473">
        <ele>395</ele>
        <time>2022-02-07T15:01:51Z</time>
      </trkpt>
      <trkpt lat="43.54599" lon="6.29488">
        <ele>394.4</ele>
        <time>2022-02-07T15:02:01Z</time>
      </trkpt>
      <trkpt lat="43.54595" lon="6.29501">
        <ele>394</ele>
        <time>2022-02-07T15:02:10Z</time>
      </trkpt>
      <trkpt lat="43.54589" lon="6.29514">
        <ele>394</ele>
        <time>2022-02-07T15:02:20Z</time>
      </trkpt>
      <trkpt lat="43.54579" lon="6.29515">
        <ele>393.8</ele>
        <time>2022-02-07T15:02:30Z</time>
      </trkpt>
      <trkpt lat="43.54572" lon="6.29512">
        <ele>393.6</ele>
        <time>2022-02-07T15:03:21Z</time>
      </trkpt>
      <trkpt lat="43.54563" lon="6.29515">
        <ele>393.3</ele>
        <time>2022-02-07T15:03:34Z</time>
      </trkpt>
      <trkpt lat="43.54553" lon="6.29528">
        <ele>392.9</ele>
        <time>2022-02-07T15:03:44Z</time>
      </trkpt>
      <trkpt lat="43.54543" lon="6.29536">
        <ele>391.9</ele>
        <time>2022-02-07T15:03:54Z</time>
      </trkpt>
      <trkpt lat="43.54532" lon="6.29544">
        <ele>391.4</ele>
        <time>2022-02-07T15:04:07Z</time>
      </trkpt>
      <trkpt lat="43.54522" lon="6.29556">
        <ele>391</ele>
        <time>2022-02-07T15:04:18Z</time>
      </trkpt>
      <trkpt lat="43.54513" lon="6.29567">
        <ele>391.2</ele>
        <time>2022-02-07T15:04:32Z</time>
      </trkpt>
      <trkpt lat="43.54501" lon="6.29571">
        <ele>390.5</ele>
        <time>2022-02-07T15:04:49Z</time>
      </trkpt>
      <trkpt lat="43.54486" lon="6.29569">
        <ele>390.3</ele>
        <time>2022-02-07T15:05:03Z</time>
      </trkpt>
      <trkpt lat="43.5447" lon="6.29575">
        <ele>389.9</ele>
        <time>2022-02-07T15:05:16Z</time>
      </trkpt>
      <trkpt lat="43.54458" lon="6.29582">
        <ele>389.5</ele>
        <time>2022-02-07T15:05:27Z</time>
      </trkpt>
      <trkpt lat="43.54447" lon="6.29594">
        <ele>389.1</ele>
        <time>2022-02-07T15:05:38Z</time>
      </trkpt>
      <trkpt lat="43.54435" lon="6.29609">
        <ele>389</ele>
        <time>2022-02-07T15:05:53Z</time>
      </trkpt>
      <trkpt lat="43.54425" lon="6.29618">
        <ele>389.1</ele>
        <time>2022-02-07T15:06:04Z</time>
      </trkpt>
      <trkpt lat="43.54413" lon="6.2962">
        <ele>388.9</ele>
        <time>2022-02-07T15:06:13Z</time>
      </trkpt>
      <trkpt lat="43.54403" lon="6.29619">
        <ele>388.5</ele>
        <time>2022-02-07T15:06:22Z</time>
      </trkpt>
      <trkpt lat="43.54391" lon="6.29621">
        <ele>388.1</ele>
        <time>2022-02-07T15:06:32Z</time>
      </trkpt>
      <trkpt lat="43.5438" lon="6.29625">
        <ele>388.2</ele>
        <time>2022-02-07T15:06:43Z</time>
      </trkpt>
      <trkpt lat="43.54374" lon="6.29637">
        <ele>388</ele>
        <time>2022-02-07T15:06:59Z</time>
      </trkpt>
      <trkpt lat="43.54379" lon="6.29643">
        <ele>388.1</ele>
        <time>2022-02-07T15:07:18Z</time>
      </trkpt>
      <trkpt lat="43.54379" lon="6.2965">
        <ele>388.3</ele>
        <time>2022-02-07T15:07:41Z</time>
      </trkpt>
      <trkpt lat="43.5437" lon="6.29644">
        <ele>388.1</ele>
        <time>2022-02-07T15:07:55Z</time>
      </trkpt>
      <trkpt lat="43.54368" lon="6.29654">
        <ele>388.1</ele>
        <time>2022-02-07T15:08:20Z</time>
      </trkpt>
      <trkpt lat="43.54362" lon="6.29666">
        <ele>388</ele>
        <time>2022-02-07T15:08:35Z</time>
      </trkpt>
      <trkpt lat="43.54357" lon="6.29677">
        <ele>387.9</ele>
        <time>2022-02-07T15:08:48Z</time>
      </trkpt>
      <trkpt lat="43.54352" lon="6.29696">
        <ele>387.7</ele>
        <time>2022-02-07T15:09:02Z</time>
      </trkpt>
      <trkpt lat="43.54346" lon="6.29712">
        <ele>387.5</ele>
        <time>2022-02-07T15:09:12Z</time>
      </trkpt>
      <trkpt lat="43.54344" lon="6.29724">
        <ele>387.4</ele>
        <time>2022-02-07T15:09:23Z</time>
      </trkpt>
      <trkpt lat="43.54336" lon="6.29736">
        <ele>387.6</ele>
        <time>2022-02-07T15:09:34Z</time>
      </trkpt>
      <trkpt lat="43.54331" lon="6.29744">
        <ele>387.6</ele>
        <time>2022-02-07T15:09:45Z</time>
      </trkpt>
      <trkpt lat="43.54319" lon="6.29755">
        <ele>387</ele>
        <time>2022-02-07T15:09:57Z</time>
      </trkpt>
      <trkpt lat="43.54308" lon="6.29769">
        <ele>386.8</ele>
        <time>2022-02-07T15:10:06Z</time>
      </trkpt>
      <trkpt lat="43.54303" lon="6.2978">
        <ele>386.9</ele>
        <time>2022-02-07T15:10:17Z</time>
      </trkpt>
      <trkpt lat="43.54294" lon="6.29791">
        <ele>386.6</ele>
        <time>2022-02-07T15:10:28Z</time>
      </trkpt>
      <trkpt lat="43.54287" lon="6.29803">
        <ele>386.3</ele>
        <time>2022-02-07T15:10:39Z</time>
      </trkpt>
      <trkpt lat="43.54278" lon="6.29816">
        <ele>386.4</ele>
        <time>2022-02-07T15:10:49Z</time>
      </trkpt>
      <trkpt lat="43.54269" lon="6.29824">
        <ele>386.4</ele>
        <time>2022-02-07T15:10:58Z</time>
      </trkpt>
      <trkpt lat="43.54258" lon="6.29833">
        <ele>386.3</ele>
        <time>2022-02-07T15:11:07Z</time>
      </trkpt>
      <trkpt lat="43.54251" lon="6.29846">
        <ele>386.5</ele>
        <time>2022-02-07T15:11:17Z</time>
      </trkpt>
      <trkpt lat="43.54242" lon="6.29855">
        <ele>386.3</ele>
        <time>2022-02-07T15:11:27Z</time>
      </trkpt>
      <trkpt lat="43.54237" lon="6.29868">
        <ele>386.2</ele>
        <time>2022-02-07T15:11:37Z</time>
      </trkpt>
      <trkpt lat="43.54233" lon="6.29872">
        <ele>386</ele>
      </trkpt>
      <trkpt lat="43.54229" lon="6.29875">
        <ele>385.8</ele>
      </trkpt>
      <trkpt lat="43.54226" lon="6.29878">
        <ele>385.8</ele>
      </trkpt>
      <trkpt lat="43.54229" lon="6.29882">
        <ele>386</ele>
        <time>2022-02-07T15:16:20Z</time>
      </trkpt>
      <trkpt lat="43.54231" lon="6.29885">
        <ele>386.2</ele>
        <time>2022-02-07T15:17:15Z</time>
      </trkpt>
      <trkpt lat="43.54233" lon="6.2989">
        <ele>386.4</ele>
      </trkpt>
      <trkpt lat="43.54236" lon="6.29895">
        <ele>386.6</ele>
      </trkpt>
      <trkpt lat="43.5424" lon="6.29899">
        <ele>386.9</ele>
        <time>2022-02-07T15:17:27Z</time>
      </trkpt>
      <trkpt lat="43.54246" lon="6.2991">
        <ele>387.5</ele>
        <time>2022-02-07T15:17:37Z</time>
      </trkpt>
      <trkpt lat="43.54253" lon="6.2992">
        <ele>388.2</ele>
        <time>2022-02-07T15:17:46Z</time>
      </trkpt>
      <trkpt lat="43.5426" lon="6.29932">
        <ele>388.7</ele>
        <time>2022-02-07T15:17:56Z</time>
      </trkpt>
      <trkpt lat="43.54268" lon="6.29941">
        <ele>389</ele>
        <time>2022-02-07T15:18:05Z</time>
      </trkpt>
      <trkpt lat="43.54276" lon="6.29952">
        <ele>389.6</ele>
        <time>2022-02-07T15:18:15Z</time>
      </trkpt>
      <trkpt lat="43.54283" lon="6.29964">
        <ele>390.7</ele>
        <time>2022-02-07T15:18:25Z</time>
      </trkpt>
      <trkpt lat="43.5429" lon="6.29975">
        <ele>391.5</ele>
        <time>2022-02-07T15:18:35Z</time>
      </trkpt>
      <trkpt lat="43.54298" lon="6.29986">
        <ele>392</ele>
        <time>2022-02-07T15:18:44Z</time>
      </trkpt>
      <trkpt lat="43.54303" lon="6.29997">
        <ele>392.1</ele>
        <time>2022-02-07T15:18:52Z</time>
      </trkpt>
      <trkpt lat="43.54307" lon="6.30008">
        <ele>392.6</ele>
        <time>2022-02-07T15:19:01Z</time>
      </trkpt>
      <trkpt lat="43.54314" lon="6.3002">
        <ele>393.6</ele>
        <time>2022-02-07T15:19:11Z</time>
      </trkpt>
      <trkpt lat="43.54324" lon="6.30026">
        <ele>394</ele>
        <time>2022-02-07T15:19:19Z</time>
      </trkpt>
      <trkpt lat="43.54334" lon="6.30031">
        <ele>394</ele>
        <time>2022-02-07T15:19:29Z</time>
      </trkpt>
      <trkpt lat="43.54341" lon="6.30042">
        <ele>393.6</ele>
        <time>2022-02-07T15:19:37Z</time>
      </trkpt>
      <trkpt lat="43.54347" lon="6.3005">
        <ele>393.1</ele>
        <time>2022-02-07T15:19:46Z</time>
      </trkpt>
      <trkpt lat="43.54364" lon="6.30061">
        <ele>392</ele>
        <time>2022-02-07T15:20:00Z</time>
      </trkpt>
      <trkpt lat="43.54372" lon="6.30073">
        <ele>391.8</ele>
        <time>2022-02-07T15:20:10Z</time>
      </trkpt>
      <trkpt lat="43.54379" lon="6.30081">
        <ele>391.4</ele>
        <time>2022-02-07T15:20:18Z</time>
      </trkpt>
      <trkpt lat="43.54391" lon="6.3009">
        <ele>390.8</ele>
        <time>2022-02-07T15:20:28Z</time>
      </trkpt>
      <trkpt lat="43.54399" lon="6.30101">
        <ele>390.7</ele>
        <time>2022-02-07T15:20:39Z</time>
      </trkpt>
      <trkpt lat="43.5441" lon="6.30113">
        <ele>390.7</ele>
        <time>2022-02-07T15:20:49Z</time>
      </trkpt>
      <trkpt lat="43.54418" lon="6.30122">
        <ele>390.5</ele>
        <time>2022-02-07T15:20:58Z</time>
      </trkpt>
      <trkpt lat="43.54425" lon="6.30132">
        <ele>389.9</ele>
        <time>2022-02-07T15:21:07Z</time>
      </trkpt>
      <trkpt lat="43.54434" lon="6.3014">
        <ele>389.4</ele>
        <time>2022-02-07T15:21:16Z</time>
      </trkpt>
      <trkpt lat="43.54442" lon="6.30147">
        <ele>389.1</ele>
        <time>2022-02-07T15:21:25Z</time>
      </trkpt>
      <trkpt lat="43.54446" lon="6.30158">
        <ele>389</ele>
        <time>2022-02-07T15:21:33Z</time>
      </trkpt>
      <trkpt lat="43.54443" lon="6.30169">
        <ele>389</ele>
        <time>2022-02-07T15:21:41Z</time>
      </trkpt>
      <trkpt lat="43.54432" lon="6.30181">
        <ele>389</ele>
        <time>2022-02-07T15:21:50Z</time>
      </trkpt>
      <trkpt lat="43.54424" lon="6.3019">
        <ele>389</ele>
        <time>2022-02-07T15:21:58Z</time>
      </trkpt>
      <trkpt lat="43.54415" lon="6.30197">
        <ele>389</ele>
        <time>2022-02-07T15:22:07Z</time>
      </trkpt>
      <trkpt lat="43.54407" lon="6.30211">
        <ele>388.8</ele>
        <time>2022-02-07T15:22:16Z</time>
      </trkpt>
      <trkpt lat="43.54401" lon="6.30215">
        <ele>388.6</ele>
        <time>2022-02-07T15:22:25Z</time>
      </trkpt>
      <trkpt lat="43.54391" lon="6.3023">
        <ele>388.4</ele>
        <time>2022-02-07T15:22:33Z</time>
      </trkpt>
      <trkpt lat="43.54384" lon="6.30239">
        <ele>388.6</ele>
        <time>2022-02-07T15:22:39Z</time>
      </trkpt>
      <trkpt lat="43.54375" lon="6.3025">
        <ele>389</ele>
        <time>2022-02-07T15:22:48Z</time>
      </trkpt>
      <trkpt lat="43.54363" lon="6.30259">
        <ele>389.6</ele>
        <time>2022-02-07T15:22:56Z</time>
      </trkpt>
      <trkpt lat="43.54356" lon="6.30269">
        <ele>390.5</ele>
        <time>2022-02-07T15:23:04Z</time>
      </trkpt>
      <trkpt lat="43.54347" lon="6.30277">
        <ele>391.4</ele>
        <time>2022-02-07T15:23:13Z</time>
      </trkpt>
      <trkpt lat="43.54341" lon="6.30286">
        <ele>392.2</ele>
        <time>2022-02-07T15:23:23Z</time>
      </trkpt>
      <trkpt lat="43.54331" lon="6.30293">
        <ele>393</ele>
        <time>2022-02-07T15:23:37Z</time>
      </trkpt>
      <trkpt lat="43.54325" lon="6.30304">
        <ele>393.6</ele>
        <time>2022-02-07T15:23:51Z</time>
      </trkpt>
      <trkpt lat="43.54317" lon="6.30316">
        <ele>393.9</ele>
        <time>2022-02-07T15:24:01Z</time>
      </trkpt>
      <trkpt lat="43.54314" lon="6.30332">
        <ele>394.5</ele>
        <time>2022-02-07T15:24:11Z</time>
      </trkpt>
      <trkpt lat="43.5431" lon="6.3035">
        <ele>394.8</ele>
        <time>2022-02-07T15:24:20Z</time>
      </trkpt>
      <trkpt lat="43.543" lon="6.30361">
        <ele>394.8</ele>
        <time>2022-02-07T15:24:29Z</time>
      </trkpt>
      <trkpt lat="43.54293" lon="6.30366">
        <ele>394.6</ele>
        <time>2022-02-07T15:24:37Z</time>
      </trkpt>
      <trkpt lat="43.54287" lon="6.30371">
        <ele>394.5</ele>
        <time>2022-02-07T15:24:45Z</time>
      </trkpt>
      <trkpt lat="43.54284" lon="6.30375">
        <ele>394.3</ele>
        <time>2022-02-07T15:25:16Z</time>
      </trkpt>
      <trkpt lat="43.54281" lon="6.30379">
        <ele>394.2</ele>
        <time>2022-02-07T15:25:47Z</time>
      </trkpt>
      <trkpt lat="43.54272" lon="6.30383">
        <ele>393.5</ele>
        <time>2022-02-07T15:26:01Z</time>
      </trkpt>
      <trkpt lat="43.54259" lon="6.30394">
        <ele>392.8</ele>
        <time>2022-02-07T15:26:10Z</time>
      </trkpt>
      <trkpt lat="43.54252" lon="6.30403">
        <ele>392.6</ele>
        <time>2022-02-07T15:26:19Z</time>
      </trkpt>
      <trkpt lat="43.54245" lon="6.30411">
        <ele>392.6</ele>
        <time>2022-02-07T15:26:27Z</time>
      </trkpt>
      <trkpt lat="43.54233" lon="6.30419">
        <ele>392.4</ele>
        <time>2022-02-07T15:26:39Z</time>
      </trkpt>
      <trkpt lat="43.54222" lon="6.3043">
        <ele>392</ele>
        <time>2022-02-07T15:26:50Z</time>
      </trkpt>
      <trkpt lat="43.54215" lon="6.30431">
        <ele>392</ele>
        <time>2022-02-07T15:27:01Z</time>
      </trkpt>
      <trkpt lat="43.54204" lon="6.30436">
        <ele>392</ele>
        <time>2022-02-07T15:27:15Z</time>
      </trkpt>
      <trkpt lat="43.54193" lon="6.30435">
        <ele>392</ele>
        <time>2022-02-07T15:27:27Z</time>
      </trkpt>
      <trkpt lat="43.54173" lon="6.30435">
        <ele>392</ele>
        <time>2022-02-07T15:27:38Z</time>
      </trkpt>
      <trkpt lat="43.54158" lon="6.3043">
        <ele>392.3</ele>
        <time>2022-02-07T15:27:50Z</time>
      </trkpt>
      <trkpt lat="43.54156" lon="6.30429">
        <ele>392.4</ele>
        <time>2022-02-07T15:27:59Z</time>
      </trkpt>
      <trkpt lat="43.5414" lon="6.30436">
        <ele>393</ele>
        <time>2022-02-07T15:28:07Z</time>
      </trkpt>
      <trkpt lat="43.54138" lon="6.30454">
        <ele>392.7</ele>
        <time>2022-02-07T15:28:15Z</time>
      </trkpt>
      <trkpt lat="43.54133" lon="6.30467">
        <ele>392.4</ele>
        <time>2022-02-07T15:28:23Z</time>
      </trkpt>
      <trkpt lat="43.54129" lon="6.30479">
        <ele>391.8</ele>
        <time>2022-02-07T15:28:31Z</time>
      </trkpt>
      <trkpt lat="43.54127" lon="6.30492">
        <ele>391</ele>
        <time>2022-02-07T15:28:39Z</time>
      </trkpt>
      <trkpt lat="43.54127" lon="6.30505">
        <ele>389.7</ele>
        <time>2022-02-07T15:28:47Z</time>
      </trkpt>
      <trkpt lat="43.54128" lon="6.30518">
        <ele>388.2</ele>
        <time>2022-02-07T15:28:55Z</time>
      </trkpt>
      <trkpt lat="43.54127" lon="6.30532">
        <ele>386.5</ele>
        <time>2022-02-07T15:29:03Z</time>
      </trkpt>
      <trkpt lat="43.54127" lon="6.30546">
        <ele>385</ele>
        <time>2022-02-07T15:29:11Z</time>
      </trkpt>
      <trkpt lat="43.54128" lon="6.30557">
        <ele>384</ele>
        <time>2022-02-07T15:29:19Z</time>
      </trkpt>
      <trkpt lat="43.54127" lon="6.3057">
        <ele>383.8</ele>
        <time>2022-02-07T15:29:27Z</time>
      </trkpt>
      <trkpt lat="43.54127" lon="6.30584">
        <ele>383.7</ele>
        <time>2022-02-07T15:29:35Z</time>
      </trkpt>
      <trkpt lat="43.54126" lon="6.30598">
        <ele>383.7</ele>
        <time>2022-02-07T15:29:42Z</time>
      </trkpt>
      <trkpt lat="43.54126" lon="6.30612">
        <ele>383.8</ele>
        <time>2022-02-07T15:29:50Z</time>
      </trkpt>
      <trkpt lat="43.54124" lon="6.30624">
        <ele>384</ele>
        <time>2022-02-07T15:29:57Z</time>
      </trkpt>
      <trkpt lat="43.54121" lon="6.30637">
        <ele>384.4</ele>
        <time>2022-02-07T15:30:05Z</time>
      </trkpt>
      <trkpt lat="43.5412" lon="6.30651">
        <ele>385.2</ele>
        <time>2022-02-07T15:30:14Z</time>
      </trkpt>
      <trkpt lat="43.54118" lon="6.30665">
        <ele>386</ele>
        <time>2022-02-07T15:30:23Z</time>
      </trkpt>
      <trkpt lat="43.54117" lon="6.30679">
        <ele>386.1</ele>
        <time>2022-02-07T15:30:32Z</time>
      </trkpt>
      <trkpt lat="43.54112" lon="6.30694">
        <ele>385.3</ele>
        <time>2022-02-07T15:30:41Z</time>
      </trkpt>
      <trkpt lat="43.54107" lon="6.30709">
        <ele>382.4</ele>
        <time>2022-02-07T15:30:50Z</time>
      </trkpt>
      <trkpt lat="43.54103" lon="6.30721">
        <ele>380.4</ele>
        <time>2022-02-07T15:30:58Z</time>
      </trkpt>
      <trkpt lat="43.54103" lon="6.30734">
        <ele>379.5</ele>
        <time>2022-02-07T15:31:06Z</time>
      </trkpt>
      <trkpt lat="43.54101" lon="6.30746">
        <ele>378.4</ele>
        <time>2022-02-07T15:31:14Z</time>
      </trkpt>
      <trkpt lat="43.54102" lon="6.3076">
        <ele>377.4</ele>
        <time>2022-02-07T15:31:23Z</time>
      </trkpt>
      <trkpt lat="43.54103" lon="6.30774">
        <ele>376.3</ele>
        <time>2022-02-07T15:31:32Z</time>
      </trkpt>
      <trkpt lat="43.54106" lon="6.30787">
        <ele>374.9</ele>
        <time>2022-02-07T15:31:41Z</time>
      </trkpt>
      <trkpt lat="43.54107" lon="6.30803">
        <ele>372</ele>
        <time>2022-02-07T15:31:50Z</time>
      </trkpt>
      <trkpt lat="43.54106" lon="6.30818">
        <ele>370.6</ele>
        <time>2022-02-07T15:31:59Z</time>
      </trkpt>
      <trkpt lat="43.54101" lon="6.30831">
        <ele>369.4</ele>
        <time>2022-02-07T15:32:06Z</time>
      </trkpt>
      <trkpt lat="43.541" lon="6.30844">
        <ele>368</ele>
        <time>2022-02-07T15:32:14Z</time>
      </trkpt>
      <trkpt lat="43.541" lon="6.3086">
        <ele>366.4</ele>
        <time>2022-02-07T15:32:22Z</time>
      </trkpt>
      <trkpt lat="43.54098" lon="6.30874">
        <ele>365.6</ele>
        <time>2022-02-07T15:32:31Z</time>
      </trkpt>
      <trkpt lat="43.54099" lon="6.30889">
        <ele>365.2</ele>
        <time>2022-02-07T15:32:39Z</time>
      </trkpt>
      <trkpt lat="43.54099" lon="6.30904">
        <ele>364.8</ele>
        <time>2022-02-07T15:32:47Z</time>
      </trkpt>
      <trkpt lat="43.54097" lon="6.30917">
        <ele>364.5</ele>
        <time>2022-02-07T15:32:54Z</time>
      </trkpt>
      <trkpt lat="43.54097" lon="6.30928">
        <ele>364.1</ele>
        <time>2022-02-07T15:33:01Z</time>
      </trkpt>
      <trkpt lat="43.54095" lon="6.30941">
        <ele>363.5</ele>
        <time>2022-02-07T15:33:09Z</time>
      </trkpt>
      <trkpt lat="43.54094" lon="6.30958">
        <ele>362.9</ele>
        <time>2022-02-07T15:33:18Z</time>
      </trkpt>
      <trkpt lat="43.54092" lon="6.30973">
        <ele>362.3</ele>
        <time>2022-02-07T15:33:26Z</time>
      </trkpt>
      <trkpt lat="43.54092" lon="6.30986">
        <ele>362.3</ele>
        <time>2022-02-07T15:33:34Z</time>
      </trkpt>
      <trkpt lat="43.54091" lon="6.30999">
        <ele>362.3</ele>
        <time>2022-02-07T15:33:43Z</time>
      </trkpt>
      <trkpt lat="43.54089" lon="6.31003">
        <ele>362.3</ele>
        <time>2022-02-07T15:34:53Z</time>
      </trkpt>
      <trkpt lat="43.54105" lon="6.31008">
        <ele>362.8</ele>
        <time>2022-02-07T15:35:05Z</time>
      </trkpt>
      <trkpt lat="43.54109" lon="6.31018">
        <ele>363</ele>
        <time>2022-02-07T15:35:14Z</time>
      </trkpt>
      <trkpt lat="43.54109" lon="6.31031">
        <ele>363.1</ele>
        <time>2022-02-07T15:35:24Z</time>
      </trkpt>
      <trkpt lat="43.54109" lon="6.31047">
        <ele>363.7</ele>
        <time>2022-02-07T15:35:35Z</time>
      </trkpt>
      <trkpt lat="43.54108" lon="6.31058">
        <ele>364.2</ele>
        <time>2022-02-07T15:35:47Z</time>
      </trkpt>
      <trkpt lat="43.54105" lon="6.31071">
        <ele>364.6</ele>
        <time>2022-02-07T15:35:57Z</time>
      </trkpt>
      <trkpt lat="43.541" lon="6.31083">
        <ele>365</ele>
        <time>2022-02-07T15:36:07Z</time>
      </trkpt>
      <trkpt lat="43.54105" lon="6.311">
        <ele>365</ele>
        <time>2022-02-07T15:36:20Z</time>
      </trkpt>
      <trkpt lat="43.54104" lon="6.31115">
        <ele>365</ele>
        <time>2022-02-07T15:36:32Z</time>
      </trkpt>
      <trkpt lat="43.54107" lon="6.31131">
        <ele>364.9</ele>
        <time>2022-02-07T15:36:44Z</time>
      </trkpt>
      <trkpt lat="43.54117" lon="6.31148">
        <ele>366</ele>
        <time>2022-02-07T15:36:55Z</time>
      </trkpt>
      <trkpt lat="43.54116" lon="6.3116">
        <ele>366.2</ele>
        <time>2022-02-07T15:37:10Z</time>
      </trkpt>
      <trkpt lat="43.54107" lon="6.31168">
        <ele>365.8</ele>
        <time>2022-02-07T15:37:23Z</time>
      </trkpt>
      <trkpt lat="43.54097" lon="6.31174">
        <ele>365.2</ele>
        <time>2022-02-07T15:37:34Z</time>
      </trkpt>
      <trkpt lat="43.54089" lon="6.31183">
        <ele>365</ele>
        <time>2022-02-07T15:37:44Z</time>
      </trkpt>
      <trkpt lat="43.54083" lon="6.31193">
        <ele>364.9</ele>
        <time>2022-02-07T15:37:54Z</time>
      </trkpt>
      <trkpt lat="43.54075" lon="6.31206">
        <ele>364.8</ele>
        <time>2022-02-07T15:38:04Z</time>
      </trkpt>
      <trkpt lat="43.54065" lon="6.31211">
        <ele>364.3</ele>
        <time>2022-02-07T15:38:13Z</time>
      </trkpt>
      <trkpt lat="43.54057" lon="6.31218">
        <ele>364</ele>
        <time>2022-02-07T15:38:22Z</time>
      </trkpt>
      <trkpt lat="43.54049" lon="6.31225">
        <ele>363.8</ele>
        <time>2022-02-07T15:38:31Z</time>
      </trkpt>
      <trkpt lat="43.5404" lon="6.31231">
        <ele>363.4</ele>
        <time>2022-02-07T15:38:41Z</time>
      </trkpt>
      <trkpt lat="43.54033" lon="6.31242">
        <ele>362.8</ele>
        <time>2022-02-07T15:38:50Z</time>
      </trkpt>
      <trkpt lat="43.54036" lon="6.3126">
        <ele>362.8</ele>
        <time>2022-02-07T15:39:04Z</time>
      </trkpt>
      <trkpt lat="43.54036" lon="6.31269">
        <ele>362.7</ele>
        <time>2022-02-07T15:39:28Z</time>
      </trkpt>
    </trkseg>
  </trk>
</gpx>